CSN553 ZGGG-ESSA
Flight info
| Callsign | CSN553 |
|---|---|
| Flight time | N/A |
| Altitude | 29100 |
| Route | YIN A461 BUBDA/K0924S0840 W56 REBIS/K0950S0890 W56 OBMEP/K0939S0920 B208 NIXAL Z156 BORMA/K0906S0980 Z156 UDA R372 AMUTA/K0906F320 R478 BD R497 KUPON/K0895F340 R497 TODES B228 HMN L870 RUROS P157 RATLA/N0483F340 DCT RUNGA N872 XILAN |
| Aircraft | B77W/H-SDE1E2E3FGHIJ2J3J4J5M1RWXY/LB1D1 |
Departure
| Time | 2026-05-06 11:11 |
|---|---|
| Airport | Guangzhou Baiyun International Airport (ZGGG) |
Arrival
| Time | N/A |
|---|---|
| Airport | Stockholm-Arlanda Airport (ESSA) |
| Time | Latitude | Longitude | Altitude | Speed | Heading |
|---|---|---|---|---|---|
| 2026-05-06 11:04 | 23.38958 | 113.29073 | 52 ft | 15 kts | 14° |
| 2026-05-06 11:05 | 23.39059 | 113.29100 | 54 ft | 15 kts | 14° |
| 2026-05-06 11:05 | 23.39160 | 113.29125 | 54 ft | 15 kts | 10° |
| 2026-05-06 11:05 | 23.39260 | 113.29152 | 55 ft | 15 kts | 14° |
| 2026-05-06 11:05 | 23.39361 | 113.29179 | 52 ft | 15 kts | 14° |
| 2026-05-06 11:06 | 23.39473 | 113.29208 | 55 ft | 20 kts | 13° |
| 2026-05-06 11:06 | 23.39611 | 113.29246 | 53 ft | 21 kts | 13° |
| 2026-05-06 11:06 | 23.39749 | 113.29284 | 54 ft | 21 kts | 12° |
| 2026-05-06 11:06 | 23.39890 | 113.29320 | 51 ft | 23 kts | 14° |
| 2026-05-06 11:07 | 23.40056 | 113.29366 | 53 ft | 25 kts | 14° |
| 2026-05-06 11:07 | 23.40223 | 113.29412 | 55 ft | 25 kts | 14° |
| 2026-05-06 11:07 | 23.40390 | 113.29458 | 51 ft | 25 kts | 14° |
| 2026-05-06 11:07 | 23.40554 | 113.29504 | 50 ft | 25 kts | 14° |
| 2026-05-06 11:08 | 23.40655 | 113.29619 | 53 ft | 25 kts | 98° |
| 2026-05-06 11:08 | 23.40617 | 113.29801 | 51 ft | 25 kts | 104° |
| 2026-05-06 11:08 | 23.40573 | 113.29988 | 51 ft | 27 kts | 104° |
| 2026-05-06 11:08 | 23.40524 | 113.30197 | 57 ft | 31 kts | 104° |
| 2026-05-06 11:09 | 23.40475 | 113.30420 | 51 ft | 30 kts | 95° |
| 2026-05-06 11:09 | 23.40511 | 113.30643 | 54 ft | 30 kts | 75° |
| 2026-05-06 11:09 | 23.40588 | 113.30855 | 51 ft | 30 kts | 67° |
| 2026-05-06 11:09 | 23.40675 | 113.31063 | 55 ft | 30 kts | 65° |
| 2026-05-06 11:10 | 23.40727 | 113.31205 | 52 ft | 17 kts | 75° |
| 2026-05-06 11:10 | 23.40713 | 113.31329 | 51 ft | 17 kts | 110° |
| 2026-05-06 11:10 | 23.40616 | 113.31359 | 53 ft | 8 kts | 192° |
| 2026-05-06 11:10 | 23.40614 | 113.31358 | 51 ft | 1 kts | 192° |
| 2026-05-06 11:11 | 23.40375 | 113.31296 | 48 ft | 75 kts | 194° |
| 2026-05-06 11:11 | 23.39597 | 113.31085 | 50 ft | 154 kts | 194° |
| 2026-05-06 11:11 | 23.38324 | 113.30729 | 199 ft | 211 kts | 195° |
| 2026-05-06 11:11 | 23.36871 | 113.30305 | 1010 ft | 218 kts | 194° |
| 2026-05-06 11:12 | 23.35462 | 113.29853 | 2136 ft | 214 kts | 195° |
| 2026-05-06 11:12 | 23.34004 | 113.29395 | 2487 ft | 222 kts | 201° |
| 2026-05-06 11:12 | 23.32821 | 113.28285 | 2655 ft | 237 kts | 242° |
| 2026-05-06 11:12 | 23.32531 | 113.26493 | 2922 ft | 251 kts | 277° |
| 2026-05-06 11:13 | 23.33149 | 113.24683 | 3350 ft | 260 kts | 303° |
| 2026-05-06 11:13 | 23.34450 | 113.23299 | 3853 ft | 267 kts | 330° |
| 2026-05-06 11:13 | 23.36245 | 113.22720 | 4121 ft | 282 kts | 1° |
| 2026-05-06 11:13 | 23.38222 | 113.22981 | 4464 ft | 290 kts | 11° |
| 2026-05-06 11:14 | 23.40221 | 113.23429 | 4943 ft | 295 kts | 11° |
| 2026-05-06 11:14 | 23.42233 | 113.23888 | 5426 ft | 296 kts | 10° |
| 2026-05-06 11:14 | 23.44262 | 113.24333 | 5874 ft | 297 kts | 9° |
| 2026-05-06 11:14 | 23.46300 | 113.24760 | 6318 ft | 299 kts | 8° |
| 2026-05-06 11:15 | 23.48351 | 113.25175 | 6751 ft | 300 kts | 8° |
| 2026-05-06 11:15 | 23.50414 | 113.25584 | 7152 ft | 302 kts | 8° |
| 2026-05-06 11:15 | 23.52464 | 113.25985 | 7557 ft | 302 kts | 8° |
| 2026-05-06 11:15 | 23.54543 | 113.26390 | 7992 ft | 303 kts | 7° |
| 2026-05-06 11:16 | 23.56626 | 113.26794 | 8391 ft | 304 kts | 7° |
| 2026-05-06 11:16 | 23.58723 | 113.27200 | 8784 ft | 306 kts | 7° |
| 2026-05-06 11:16 | 23.60828 | 113.27606 | 9167 ft | 308 kts | 7° |
| 2026-05-06 11:16 | 23.62918 | 113.28008 | 9579 ft | 309 kts | 7° |
| 2026-05-06 11:17 | 23.65040 | 113.28419 | 9977 ft | 310 kts | 7° |
| 2026-05-06 11:17 | 23.67189 | 113.28834 | 10166 ft | 319 kts | 7° |
| 2026-05-06 11:17 | 23.69424 | 113.29265 | 10252 ft | 330 kts | 7° |
| 2026-05-06 11:17 | 23.71735 | 113.29711 | 10336 ft | 342 kts | 7° |
| 2026-05-06 11:18 | 23.74118 | 113.30172 | 10427 ft | 353 kts | 7° |
| 2026-05-06 11:18 | 23.76569 | 113.30648 | 10506 ft | 363 kts | 7° |
| 2026-05-06 11:18 | 23.79062 | 113.31131 | 10579 ft | 373 kts | 7° |
| 2026-05-06 11:18 | 23.81656 | 113.31635 | 10659 ft | 381 kts | 7° |
| 2026-05-06 11:19 | 23.84284 | 113.32146 | 10845 ft | 386 kts | 7° |
| 2026-05-06 11:19 | 23.86933 | 113.32661 | 11110 ft | 388 kts | 7° |
| 2026-05-06 11:19 | 23.89607 | 113.33180 | 11397 ft | 389 kts | 7° |
| 2026-05-06 11:19 | 23.92256 | 113.33694 | 11693 ft | 391 kts | 7° |
| 2026-05-06 11:20 | 23.94944 | 113.34215 | 11969 ft | 392 kts | 7° |
| 2026-05-06 11:20 | 23.97642 | 113.34738 | 12208 ft | 394 kts | 7° |
| 2026-05-06 11:20 | 24.00355 | 113.35264 | 12467 ft | 396 kts | 7° |
| 2026-05-06 11:20 | 24.03074 | 113.35793 | 12723 ft | 397 kts | 7° |
| 2026-05-06 11:21 | 24.05804 | 113.36323 | 12967 ft | 399 kts | 7° |
| 2026-05-06 11:21 | 24.08545 | 113.36856 | 13196 ft | 401 kts | 7° |
| 2026-05-06 11:21 | 24.11260 | 113.37386 | 13476 ft | 401 kts | 7° |
| 2026-05-06 11:21 | 24.14024 | 113.37924 | 13710 ft | 402 kts | 7° |
| 2026-05-06 11:22 | 24.16800 | 113.38464 | 13929 ft | 404 kts | 7° |
| 2026-05-06 11:22 | 24.19572 | 113.39006 | 14133 ft | 406 kts | 7° |
| 2026-05-06 11:22 | 24.22362 | 113.39550 | 14328 ft | 407 kts | 7° |
| 2026-05-06 11:22 | 24.25127 | 113.40090 | 14490 ft | 409 kts | 7° |
| 2026-05-06 11:23 | 24.27936 | 113.40638 | 14665 ft | 411 kts | 7° |
| 2026-05-06 11:23 | 24.30769 | 113.41192 | 14859 ft | 412 kts | 7° |
| 2026-05-06 11:23 | 24.33602 | 113.41742 | 15026 ft | 413 kts | 6° |
| 2026-05-06 11:23 | 24.36455 | 113.42106 | 15196 ft | 413 kts | 359° |
| 2026-05-06 11:24 | 24.39314 | 113.42143 | 15556 ft | 417 kts | 356° |
| 2026-05-06 11:24 | 24.42215 | 113.42093 | 16105 ft | 417 kts | 356° |
| 2026-05-06 11:24 | 24.45140 | 113.42065 | 16556 ft | 420 kts | 356° |
| 2026-05-06 11:24 | 24.48076 | 113.42084 | 16907 ft | 424 kts | 357° |
| 2026-05-06 11:25 | 24.51042 | 113.42163 | 17316 ft | 428 kts | 359° |
| 2026-05-06 11:25 | 24.54007 | 113.42307 | 17732 ft | 432 kts | 359° |
| 2026-05-06 11:25 | 24.57029 | 113.42474 | 18155 ft | 436 kts | 359° |
| 2026-05-06 11:25 | 24.60074 | 113.42635 | 18521 ft | 439 kts | 359° |
| 2026-05-06 11:26 | 24.63135 | 113.42775 | 18882 ft | 441 kts | 359° |
| 2026-05-06 11:26 | 24.66218 | 113.42893 | 19309 ft | 443 kts | 358° |
| 2026-05-06 11:26 | 24.69266 | 113.42994 | 19718 ft | 444 kts | 358° |
| 2026-05-06 11:26 | 24.72368 | 113.43085 | 20103 ft | 446 kts | 358° |
| 2026-05-06 11:27 | 24.75499 | 113.43172 | 20470 ft | 449 kts | 358° |
| 2026-05-06 11:27 | 24.78638 | 113.43257 | 20825 ft | 451 kts | 358° |
| 2026-05-06 11:27 | 24.81739 | 113.43341 | 21184 ft | 454 kts | 358° |
| 2026-05-06 11:27 | 24.84922 | 113.43429 | 21558 ft | 456 kts | 358° |
| 2026-05-06 11:28 | 24.88112 | 113.43520 | 21915 ft | 458 kts | 358° |
| 2026-05-06 11:28 | 24.91294 | 113.43612 | 22268 ft | 460 kts | 358° |
| 2026-05-06 11:28 | 24.94508 | 113.43706 | 22615 ft | 463 kts | 358° |
| 2026-05-06 11:28 | 24.97721 | 113.43799 | 22949 ft | 465 kts | 358° |
| 2026-05-06 11:29 | 25.00982 | 113.43894 | 23280 ft | 468 kts | 358° |
| 2026-05-06 11:29 | 25.04252 | 113.43989 | 23598 ft | 470 kts | 358° |
| 2026-05-06 11:29 | 25.07525 | 113.44084 | 23884 ft | 471 kts | 358° |
| 2026-05-06 11:29 | 25.09700 | 113.44147 | 24091 ft | 472 kts | 358° |
| 2026-05-06 11:30 | 25.14066 | 113.44275 | 24491 ft | 473 kts | 358° |
| 2026-05-06 11:30 | 25.17375 | 113.44372 | 24792 ft | 475 kts | 358° |
| 2026-05-06 11:30 | 25.20683 | 113.44467 | 25076 ft | 476 kts | 358° |
| 2026-05-06 11:30 | 25.22880 | 113.44531 | 25269 ft | 477 kts | 358° |
| 2026-05-06 11:31 | 25.26207 | 113.44627 | 25542 ft | 479 kts | 358° |
| 2026-05-06 11:31 | 25.29554 | 113.44724 | 25825 ft | 480 kts | 358° |
| 2026-05-06 11:31 | 25.32913 | 113.44822 | 26119 ft | 481 kts | 358° |
| 2026-05-06 11:31 | 25.36267 | 113.44920 | 26378 ft | 483 kts | 358° |
| 2026-05-06 11:32 | 25.39640 | 113.45019 | 26652 ft | 485 kts | 358° |
| 2026-05-06 11:32 | 25.42971 | 113.45116 | 26930 ft | 486 kts | 358° |
| 2026-05-06 11:32 | 25.46358 | 113.45215 | 27204 ft | 487 kts | 358° |
| 2026-05-06 11:32 | 25.49765 | 113.45315 | 27459 ft | 488 kts | 358° |
| 2026-05-06 11:33 | 25.53177 | 113.45415 | 27687 ft | 490 kts | 358° |
| 2026-05-06 11:33 | 25.56595 | 113.45514 | 27920 ft | 492 kts | 358° |
| 2026-05-06 11:33 | 25.60030 | 113.45614 | 28144 ft | 494 kts | 358° |
| 2026-05-06 11:33 | 25.63419 | 113.45713 | 28351 ft | 495 kts | 358° |
| 2026-05-06 11:34 | 25.66875 | 113.45814 | 28591 ft | 496 kts | 358° |
| 2026-05-06 11:34 | 25.70352 | 113.45916 | 28809 ft | 497 kts | 358° |
| 2026-05-06 11:34 | 25.73785 | 113.46017 | 29022 ft | 498 kts | 358° |
| 2026-05-06 11:34 | 25.77300 | 113.46121 | 29232 ft | 499 kts | 358° |
| 2026-05-06 11:35 | 25.80729 | 113.46221 | 29409 ft | 500 kts | 358° |
| 2026-05-06 11:35 | 25.84231 | 113.46324 | 29583 ft | 502 kts | 358° |
| 2026-05-06 11:35 | 25.87730 | 113.46402 | 29806 ft | 501 kts | 356° |
| 2026-05-06 11:36 | 25.94730 | 113.46243 | 29908 ft | 500 kts | 354° |
| 2026-05-06 11:36 | 26.01615 | 113.45891 | 29896 ft | 497 kts | 353° |
| 2026-05-06 11:37 | 26.08533 | 113.45557 | 29908 ft | 496 kts | 354° |
| 2026-05-06 11:37 | 26.15421 | 113.45282 | 29892 ft | 496 kts | 354° |
| 2026-05-06 11:38 | 26.22333 | 113.45025 | 29879 ft | 496 kts | 354° |
| 2026-05-06 11:38 | 26.29244 | 113.44762 | 29875 ft | 496 kts | 354° |
| 2026-05-06 11:39 | 26.36138 | 113.44494 | 29871 ft | 497 kts | 354° |
| 2026-05-06 11:39 | 26.43022 | 113.44226 | 29859 ft | 498 kts | 354° |
| 2026-05-06 11:40 | 26.49963 | 113.43956 | 29861 ft | 497 kts | 354° |
| 2026-05-06 11:40 | 26.56836 | 113.43692 | 29855 ft | 498 kts | 354° |
| 2026-05-06 11:41 | 26.63798 | 113.43430 | 29849 ft | 498 kts | 354° |
| 2026-05-06 11:41 | 26.70705 | 113.43170 | 29844 ft | 498 kts | 354° |
| 2026-05-06 11:42 | 26.77648 | 113.42907 | 29840 ft | 498 kts | 353° |
| 2026-05-06 11:42 | 26.84591 | 113.42643 | 29852 ft | 498 kts | 354° |
| 2026-05-06 11:43 | 26.91490 | 113.42379 | 29840 ft | 498 kts | 354° |
| 2026-05-06 11:43 | 26.98405 | 113.42116 | 29837 ft | 498 kts | 354° |
| 2026-05-06 11:44 | 27.08784 | 113.41721 | 29836 ft | 498 kts | 353° |
| 2026-05-06 11:44 | 27.15720 | 113.41456 | 29845 ft | 497 kts | 353° |
| 2026-05-06 11:45 | 27.22608 | 113.41192 | 29836 ft | 496 kts | 353° |
| 2026-05-06 11:45 | 27.29533 | 113.40926 | 29827 ft | 496 kts | 353° |
| 2026-05-06 11:46 | 27.36399 | 113.40707 | 29828 ft | 496 kts | 354° |
| 2026-05-06 11:46 | 27.43334 | 113.40813 | 29828 ft | 498 kts | 357° |
| 2026-05-06 11:47 | 27.50243 | 113.41099 | 29824 ft | 498 kts | 356° |
| 2026-05-06 11:47 | 27.57181 | 113.41270 | 29827 ft | 497 kts | 356° |
| 2026-05-06 11:48 | 27.64062 | 113.41374 | 29826 ft | 496 kts | 356° |
| 2026-05-06 11:48 | 27.70991 | 113.41766 | 29820 ft | 499 kts | 359° |
| 2026-05-06 11:49 | 27.77880 | 113.42470 | 29818 ft | 499 kts | 360° |
| 2026-05-06 11:49 | 27.84810 | 113.43090 | 29829 ft | 498 kts | 359° |
| 2026-05-06 11:50 | 27.91733 | 113.43698 | 29827 ft | 499 kts | 359° |
| 2026-05-06 11:50 | 27.98638 | 113.44307 | 29827 ft | 499 kts | 359° |
| 2026-05-06 11:51 | 28.05595 | 113.44936 | 29826 ft | 500 kts | 359° |
| 2026-05-06 11:51 | 28.12480 | 113.45594 | 29827 ft | 499 kts | 358° |
| 2026-05-06 11:52 | 28.19410 | 113.46015 | 29835 ft | 497 kts | 356° |
| 2026-05-06 11:52 | 28.26345 | 113.46428 | 29820 ft | 499 kts | 358° |
| 2026-05-06 11:53 | 28.33247 | 113.46934 | 29820 ft | 499 kts | 358° |
| 2026-05-06 11:53 | 28.40196 | 113.47433 | 29815 ft | 499 kts | 358° |
| 2026-05-06 11:54 | 28.47128 | 113.47930 | 29812 ft | 498 kts | 358° |
| 2026-05-06 11:54 | 28.54064 | 113.48438 | 29826 ft | 499 kts | 358° |
| 2026-05-06 11:55 | 28.60977 | 113.48947 | 29826 ft | 500 kts | 358° |
| 2026-05-06 11:55 | 28.67938 | 113.49456 | 29820 ft | 501 kts | 358° |
| 2026-05-06 11:56 | 28.74859 | 113.49965 | 29819 ft | 501 kts | 358° |
| 2026-05-06 11:56 | 28.81815 | 113.50470 | 29822 ft | 502 kts | 358° |
| 2026-05-06 11:57 | 28.88823 | 113.50966 | 29818 ft | 503 kts | 358° |
| 2026-05-06 11:57 | 28.95814 | 113.51464 | 29766 ft | 502 kts | 358° |
| 2026-05-06 11:58 | 29.02733 | 113.51959 | 29810 ft | 501 kts | 358° |
| 2026-05-06 11:58 | 29.09717 | 113.52456 | 29812 ft | 502 kts | 358° |
| 2026-05-06 11:59 | 29.16666 | 113.52955 | 29810 ft | 502 kts | 358° |
| 2026-05-06 11:59 | 29.23658 | 113.53458 | 29797 ft | 502 kts | 358° |
| 2026-05-06 12:00 | 29.30626 | 113.53969 | 29820 ft | 501 kts | 358° |
| 2026-05-06 12:00 | 29.37550 | 113.54560 | 29805 ft | 502 kts | 359° |
| 2026-05-06 12:01 | 29.44539 | 113.55196 | 29804 ft | 503 kts | 358° |
| 2026-05-06 12:01 | 29.51547 | 113.55824 | 29805 ft | 504 kts | 359° |
| 2026-05-06 12:02 | 29.58519 | 113.56435 | 29803 ft | 504 kts | 359° |
| 2026-05-06 12:02 | 29.65495 | 113.57044 | 29800 ft | 504 kts | 359° |
| 2026-05-06 12:03 | 29.72504 | 113.57660 | 29795 ft | 504 kts | 359° |
| 2026-05-06 12:03 | 29.79499 | 113.58276 | 29789 ft | 504 kts | 359° |
| 2026-05-06 12:04 | 29.86453 | 113.58889 | 29796 ft | 504 kts | 359° |
| 2026-05-06 12:04 | 29.93454 | 113.59704 | 29773 ft | 502 kts | 4° |
| 2026-05-06 12:05 | 30.00176 | 113.62011 | 29806 ft | 514 kts | 21° |
| 2026-05-06 12:05 | 30.06478 | 113.65897 | 29781 ft | 511 kts | 23° |
| 2026-05-06 12:06 | 30.12844 | 113.69249 | 29795 ft | 504 kts | 16° |
| 2026-05-06 12:06 | 30.19461 | 113.72161 | 29799 ft | 512 kts | 16° |
| 2026-05-06 12:07 | 30.26091 | 113.75268 | 29795 ft | 520 kts | 18° |
| 2026-05-06 12:07 | 30.32784 | 113.78635 | 29781 ft | 522 kts | 19° |
| 2026-05-06 12:08 | 30.39409 | 113.82017 | 29794 ft | 522 kts | 19° |
| 2026-05-06 12:08 | 30.46057 | 113.85373 | 29790 ft | 521 kts | 19° |
| 2026-05-06 12:09 | 30.52731 | 113.88722 | 29787 ft | 521 kts | 19° |
| 2026-05-06 12:09 | 30.59383 | 113.92069 | 29777 ft | 520 kts | 19° |
| 2026-05-06 12:10 | 30.66001 | 113.95393 | 29790 ft | 519 kts | 18° |
| 2026-05-06 12:10 | 30.72687 | 113.98646 | 29798 ft | 519 kts | 19° |
| 2026-05-06 12:11 | 30.79212 | 114.02217 | 29815 ft | 521 kts | 22° |
| 2026-05-06 12:11 | 30.85751 | 114.05921 | 29802 ft | 521 kts | 21° |
| 2026-05-06 12:12 | 30.92315 | 114.09517 | 29804 ft | 521 kts | 20° |
| 2026-05-06 12:12 | 30.98864 | 114.13053 | 29795 ft | 521 kts | 20° |
| 2026-05-06 12:13 | 31.05461 | 114.16642 | 29800 ft | 522 kts | 21° |
| 2026-05-06 12:13 | 31.12031 | 114.20220 | 29808 ft | 522 kts | 20° |
| 2026-05-06 12:14 | 31.18607 | 114.23801 | 29813 ft | 523 kts | 21° |
| 2026-05-06 12:14 | 31.25228 | 114.27416 | 29798 ft | 524 kts | 21° |
| 2026-05-06 12:15 | 31.31825 | 114.30971 | 29803 ft | 522 kts | 18° |
| 2026-05-06 12:15 | 31.35186 | 114.32492 | 29782 ft | 511 kts | 13° |
| 2026-05-06 12:15 | 31.38621 | 114.33476 | 29809 ft | 503 kts | 2° |
| 2026-05-06 12:16 | 31.45493 | 114.33396 | 29807 ft | 491 kts | 351° |
| 2026-05-06 12:16 | 31.52301 | 114.33272 | 29819 ft | 493 kts | 358° |
| 2026-05-06 12:17 | 31.59242 | 114.33834 | 29827 ft | 502 kts | 359° |
| 2026-05-06 12:17 | 31.66234 | 114.34165 | 29830 ft | 507 kts | 356° |
| 2026-05-06 12:18 | 31.72121 | 114.34290 | 29819 ft | 509 kts | 356° |
| 2026-05-06 12:18 | 31.79221 | 114.34449 | 29817 ft | 508 kts | 356° |
| 2026-05-06 12:19 | 31.86263 | 114.34622 | 29806 ft | 507 kts | 356° |
| 2026-05-06 12:19 | 31.93318 | 114.34854 | 29804 ft | 506 kts | 357° |
| 2026-05-06 12:20 | 32.00364 | 114.35094 | 29803 ft | 505 kts | 357° |
| 2026-05-06 12:20 | 32.07390 | 114.35321 | 29805 ft | 504 kts | 356° |
| 2026-05-06 12:21 | 32.14377 | 114.35540 | 29808 ft | 504 kts | 357° |
| 2026-05-06 12:21 | 32.21399 | 114.35762 | 29802 ft | 504 kts | 357° |
| 2026-05-06 12:22 | 32.28375 | 114.36007 | 29806 ft | 504 kts | 358° |
| 2026-05-06 12:22 | 32.35404 | 114.36558 | 29803 ft | 506 kts | 0° |
| 2026-05-06 12:23 | 32.42413 | 114.37338 | 29807 ft | 507 kts | 0° |
| 2026-05-06 12:23 | 32.49444 | 114.38039 | 29808 ft | 507 kts | 360° |
| 2026-05-06 12:24 | 32.56452 | 114.38652 | 29808 ft | 507 kts | 359° |
| 2026-05-06 12:24 | 32.63498 | 114.39270 | 29809 ft | 507 kts | 360° |
| 2026-05-06 12:25 | 32.70513 | 114.39913 | 29808 ft | 507 kts | 360° |
| 2026-05-06 12:25 | 32.77568 | 114.40579 | 29806 ft | 507 kts | 360° |
| 2026-05-06 12:26 | 32.84616 | 114.41245 | 29804 ft | 507 kts | 360° |
| 2026-05-06 12:26 | 32.91626 | 114.41904 | 29805 ft | 507 kts | 360° |
| 2026-05-06 12:27 | 32.98642 | 114.42562 | 29805 ft | 507 kts | 360° |
| 2026-05-06 12:27 | 33.05704 | 114.43227 | 29808 ft | 507 kts | 360° |
| 2026-05-06 12:28 | 33.12697 | 114.43887 | 29809 ft | 506 kts | 360° |
| 2026-05-06 12:28 | 33.19716 | 114.44550 | 29808 ft | 506 kts | 360° |
| 2026-05-06 12:29 | 33.26770 | 114.45217 | 29808 ft | 506 kts | 360° |
| 2026-05-06 12:29 | 33.33767 | 114.45879 | 29806 ft | 506 kts | 360° |
| 2026-05-06 12:30 | 33.40799 | 114.46543 | 29804 ft | 506 kts | 360° |
| 2026-05-06 12:30 | 33.47776 | 114.47204 | 29803 ft | 505 kts | 360° |
| 2026-05-06 12:31 | 33.54796 | 114.47872 | 29792 ft | 505 kts | 0° |
| 2026-05-06 12:31 | 33.61805 | 114.48538 | 29811 ft | 504 kts | 0° |
| 2026-05-06 12:32 | 33.68790 | 114.49179 | 29805 ft | 504 kts | 360° |
| 2026-05-06 12:32 | 33.75795 | 114.49812 | 29805 ft | 504 kts | 360° |
| 2026-05-06 12:33 | 33.82601 | 114.49403 | 29800 ft | 482 kts | 336° |
| 2026-05-06 12:33 | 33.85542 | 114.47604 | 29811 ft | 473 kts | 319° |
| 2026-05-06 12:33 | 33.88022 | 114.44978 | 29790 ft | 468 kts | 312° |
| 2026-05-06 12:34 | 33.92789 | 114.39798 | 29793 ft | 461 kts | 318° |
| 2026-05-06 12:34 | 33.98036 | 114.35151 | 29804 ft | 471 kts | 321° |
| 2026-05-06 12:35 | 34.03362 | 114.30443 | 29816 ft | 477 kts | 319° |
| 2026-05-06 12:35 | 34.08601 | 114.25563 | 29801 ft | 479 kts | 318° |
| 2026-05-06 12:36 | 34.13848 | 114.20556 | 29802 ft | 479 kts | 318° |
| 2026-05-06 12:36 | 34.19048 | 114.15589 | 29816 ft | 479 kts | 318° |
| 2026-05-06 12:37 | 34.24294 | 114.10596 | 29813 ft | 479 kts | 317° |
| 2026-05-06 12:37 | 34.29506 | 114.05635 | 29833 ft | 478 kts | 317° |
| 2026-05-06 12:38 | 34.34731 | 114.00651 | 29845 ft | 477 kts | 317° |
| 2026-05-06 12:38 | 34.39920 | 113.95689 | 29846 ft | 476 kts | 317° |
| 2026-05-06 12:39 | 34.45134 | 113.90696 | 29857 ft | 476 kts | 317° |
| 2026-05-06 12:39 | 34.50378 | 113.85951 | 29846 ft | 469 kts | 323° |
| 2026-05-06 12:40 | 34.56344 | 113.82611 | 29863 ft | 481 kts | 339° |
| 2026-05-06 12:40 | 34.62914 | 113.80949 | 29853 ft | 481 kts | 343° |
| 2026-05-06 12:41 | 34.69318 | 113.78868 | 29868 ft | 476 kts | 337° |
| 2026-05-06 12:41 | 34.75708 | 113.76399 | 29871 ft | 486 kts | 338° |
| 2026-05-06 12:42 | 34.82248 | 113.74204 | 29876 ft | 493 kts | 340° |
| 2026-05-06 12:42 | 34.88858 | 113.71977 | 29849 ft | 486 kts | 337° |
| 2026-05-06 12:43 | 34.95135 | 113.69264 | 29884 ft | 476 kts | 334° |
| 2026-05-06 12:43 | 35.01348 | 113.66348 | 29894 ft | 484 kts | 334° |
| 2026-05-06 12:44 | 35.07657 | 113.63475 | 29881 ft | 485 kts | 334° |
| 2026-05-06 12:44 | 35.14022 | 113.60665 | 29890 ft | 484 kts | 335° |
| 2026-05-06 12:45 | 35.20324 | 113.57894 | 29894 ft | 482 kts | 334° |
| 2026-05-06 12:46 | 35.29767 | 113.53708 | 29900 ft | 479 kts | 334° |
| 2026-05-06 12:46 | 35.35994 | 113.50937 | 29912 ft | 478 kts | 334° |
| 2026-05-06 12:47 | 35.42264 | 113.48143 | 29919 ft | 478 kts | 334° |
| 2026-05-06 12:47 | 35.48535 | 113.45362 | 29939 ft | 479 kts | 334° |
| 2026-05-06 12:48 | 35.54786 | 113.42630 | 29897 ft | 473 kts | 334° |
| 2026-05-06 12:48 | 35.60985 | 113.39900 | 29942 ft | 474 kts | 334° |
| 2026-05-06 12:49 | 35.67219 | 113.37113 | 29977 ft | 478 kts | 333° |
| 2026-05-06 12:49 | 35.73485 | 113.34293 | 29979 ft | 485 kts | 333° |
| 2026-05-06 12:50 | 35.79841 | 113.31443 | 29979 ft | 482 kts | 333° |
| 2026-05-06 12:50 | 35.86059 | 113.28652 | 29983 ft | 476 kts | 333° |
| 2026-05-06 12:51 | 35.92304 | 113.25866 | 29986 ft | 478 kts | 333° |
| 2026-05-06 12:51 | 35.98591 | 113.23072 | 30002 ft | 479 kts | 333° |
| 2026-05-06 12:52 | 36.04839 | 113.20287 | 30006 ft | 479 kts | 333° |
| 2026-05-06 12:52 | 36.11123 | 113.17476 | 30004 ft | 479 kts | 333° |
| 2026-05-06 12:53 | 36.17281 | 113.14722 | 30002 ft | 467 kts | 333° |
| 2026-05-06 12:53 | 36.23430 | 113.11961 | 30014 ft | 472 kts | 333° |
| 2026-05-06 12:54 | 36.29800 | 113.09536 | 30019 ft | 484 kts | 337° |
| 2026-05-06 12:54 | 36.36370 | 113.07519 | 30015 ft | 486 kts | 339° |
| 2026-05-06 12:55 | 36.42899 | 113.05543 | 29997 ft | 484 kts | 338° |
| 2026-05-06 12:55 | 36.49428 | 113.03457 | 30001 ft | 483 kts | 337° |
| 2026-05-06 12:56 | 36.55898 | 113.01328 | 30002 ft | 482 kts | 337° |
| 2026-05-06 12:56 | 36.62385 | 112.99187 | 30004 ft | 481 kts | 337° |
| 2026-05-06 12:57 | 36.68869 | 112.97055 | 30001 ft | 481 kts | 337° |
| 2026-05-06 12:57 | 36.75293 | 112.94945 | 30003 ft | 481 kts | 337° |
| 2026-05-06 12:58 | 36.81776 | 112.92811 | 29999 ft | 481 kts | 337° |
| 2026-05-06 12:58 | 36.88267 | 112.90670 | 30011 ft | 481 kts | 337° |
| 2026-05-06 12:59 | 36.94716 | 112.88540 | 30007 ft | 482 kts | 337° |
| 2026-05-06 12:59 | 37.01180 | 112.86401 | 30008 ft | 482 kts | 337° |
| 2026-05-06 13:00 | 37.07692 | 112.84241 | 30019 ft | 483 kts | 337° |
| 2026-05-06 13:00 | 37.14185 | 112.82097 | 30028 ft | 483 kts | 337° |
| 2026-05-06 13:01 | 37.20719 | 112.79941 | 30017 ft | 484 kts | 337° |
| 2026-05-06 13:01 | 37.27201 | 112.77796 | 30019 ft | 484 kts | 337° |
| 2026-05-06 13:02 | 37.33726 | 112.75632 | 30034 ft | 484 kts | 337° |
| 2026-05-06 13:02 | 37.40219 | 112.73473 | 30017 ft | 484 kts | 337° |
| 2026-05-06 13:03 | 37.46748 | 112.71298 | 30026 ft | 484 kts | 337° |
| 2026-05-06 13:03 | 37.53263 | 112.69122 | 30031 ft | 485 kts | 337° |
| 2026-05-06 13:04 | 37.59801 | 112.66937 | 30029 ft | 486 kts | 337° |
| 2026-05-06 13:04 | 37.66309 | 112.64769 | 30026 ft | 486 kts | 338° |
| 2026-05-06 13:05 | 37.72882 | 112.62602 | 30023 ft | 487 kts | 338° |
| 2026-05-06 13:05 | 37.79475 | 112.60702 | 30025 ft | 492 kts | 342° |
| 2026-05-06 13:06 | 37.86249 | 112.59197 | 30032 ft | 493 kts | 342° |
| 2026-05-06 13:06 | 37.92972 | 112.57640 | 30033 ft | 493 kts | 342° |
| 2026-05-06 13:07 | 37.98591 | 112.56320 | 30038 ft | 493 kts | 342° |
| 2026-05-06 13:07 | 38.05353 | 112.54730 | 30050 ft | 493 kts | 342° |
| 2026-05-06 13:08 | 38.12089 | 112.53150 | 30057 ft | 493 kts | 342° |
| 2026-05-06 13:08 | 38.18821 | 112.51569 | 30060 ft | 493 kts | 342° |
| 2026-05-06 13:09 | 38.25579 | 112.49980 | 30059 ft | 492 kts | 341° |
| 2026-05-06 13:09 | 38.32263 | 112.48405 | 30077 ft | 490 kts | 341° |
| 2026-05-06 13:10 | 38.38985 | 112.46815 | 30069 ft | 489 kts | 341° |
| 2026-05-06 13:10 | 38.45638 | 112.45242 | 30071 ft | 487 kts | 341° |
| 2026-05-06 13:11 | 38.52313 | 112.43650 | 30078 ft | 486 kts | 341° |
| 2026-05-06 13:11 | 38.58922 | 112.42065 | 30071 ft | 484 kts | 341° |
| 2026-05-06 13:12 | 38.65562 | 112.40467 | 30099 ft | 484 kts | 341° |
| 2026-05-06 13:12 | 38.72167 | 112.38870 | 30093 ft | 485 kts | 341° |
| 2026-05-06 13:13 | 38.78829 | 112.37262 | 30097 ft | 486 kts | 341° |
| 2026-05-06 13:13 | 38.85448 | 112.35663 | 30108 ft | 486 kts | 341° |
| 2026-05-06 13:14 | 38.92119 | 112.34051 | 30116 ft | 486 kts | 341° |
| 2026-05-06 13:14 | 38.98743 | 112.32445 | 30119 ft | 486 kts | 341° |
| 2026-05-06 13:15 | 39.05396 | 112.30828 | 30106 ft | 486 kts | 341° |
| 2026-05-06 13:15 | 39.12049 | 112.29210 | 30120 ft | 485 kts | 341° |
| 2026-05-06 13:16 | 39.18642 | 112.27602 | 30117 ft | 484 kts | 341° |
| 2026-05-06 13:16 | 39.25274 | 112.25981 | 30126 ft | 483 kts | 340° |
| 2026-05-06 13:17 | 39.31848 | 112.24368 | 30136 ft | 483 kts | 340° |
| 2026-05-06 13:17 | 39.38478 | 112.22737 | 30137 ft | 483 kts | 340° |
| 2026-05-06 13:18 | 39.45085 | 112.21115 | 30137 ft | 484 kts | 340° |
| 2026-05-06 13:18 | 39.51664 | 112.19500 | 30142 ft | 484 kts | 340° |
| 2026-05-06 13:19 | 39.58300 | 112.17895 | 30152 ft | 484 kts | 340° |
| 2026-05-06 13:19 | 39.64901 | 112.16306 | 30150 ft | 483 kts | 340° |
| 2026-05-06 13:20 | 39.71519 | 112.14705 | 30152 ft | 483 kts | 340° |
| 2026-05-06 13:20 | 39.78153 | 112.13091 | 30159 ft | 483 kts | 340° |
| 2026-05-06 13:21 | 39.84726 | 112.11490 | 30162 ft | 482 kts | 340° |
| 2026-05-06 13:21 | 39.91314 | 112.09883 | 30164 ft | 481 kts | 340° |
| 2026-05-06 13:22 | 39.97867 | 112.08282 | 30163 ft | 480 kts | 340° |
| 2026-05-06 13:22 | 40.04442 | 112.06666 | 30167 ft | 479 kts | 340° |
| 2026-05-06 13:23 | 40.11002 | 112.05048 | 30175 ft | 478 kts | 340° |
| 2026-05-06 13:23 | 40.17517 | 112.03438 | 30174 ft | 477 kts | 340° |
| 2026-05-06 13:24 | 40.24053 | 112.01828 | 30174 ft | 476 kts | 340° |
| 2026-05-06 13:24 | 40.30554 | 112.00251 | 30181 ft | 475 kts | 340° |
| 2026-05-06 13:25 | 40.37028 | 111.98679 | 30177 ft | 475 kts | 340° |
| 2026-05-06 13:25 | 40.43544 | 111.97119 | 30178 ft | 475 kts | 341° |
| 2026-05-06 13:26 | 40.50072 | 111.95667 | 30190 ft | 476 kts | 341° |
| 2026-05-06 13:26 | 40.56576 | 111.94224 | 30218 ft | 475 kts | 341° |
| 2026-05-06 13:27 | 40.63113 | 111.92738 | 30223 ft | 475 kts | 340° |
| 2026-05-06 13:27 | 40.69512 | 111.90997 | 30230 ft | 470 kts | 338° |
| 2026-05-06 13:28 | 40.75741 | 111.88770 | 30258 ft | 459 kts | 333° |
| 2026-05-06 13:28 | 40.81813 | 111.86139 | 30252 ft | 462 kts | 333° |
| 2026-05-06 13:29 | 40.87994 | 111.83583 | 30249 ft | 466 kts | 335° |
| 2026-05-06 13:29 | 40.94227 | 111.81254 | 30246 ft | 467 kts | 336° |
| 2026-05-06 13:30 | 41.00494 | 111.78908 | 30238 ft | 466 kts | 335° |
| 2026-05-06 13:30 | 41.06673 | 111.76499 | 30239 ft | 464 kts | 335° |
| 2026-05-06 13:31 | 41.12850 | 111.74035 | 30239 ft | 462 kts | 335° |
| 2026-05-06 13:31 | 41.19011 | 111.71564 | 30249 ft | 461 kts | 335° |
| 2026-05-06 13:32 | 41.25122 | 111.69116 | 30246 ft | 460 kts | 335° |
| 2026-05-06 13:32 | 41.31247 | 111.66662 | 30237 ft | 458 kts | 335° |
| 2026-05-06 13:33 | 41.37361 | 111.64210 | 30247 ft | 457 kts | 335° |
| 2026-05-06 13:33 | 41.43428 | 111.61769 | 30256 ft | 456 kts | 335° |
| 2026-05-06 13:34 | 41.49510 | 111.59319 | 30256 ft | 455 kts | 335° |
| 2026-05-06 13:34 | 41.55574 | 111.56871 | 30268 ft | 454 kts | 335° |
| 2026-05-06 13:35 | 41.61604 | 111.54431 | 30267 ft | 453 kts | 335° |
| 2026-05-06 13:35 | 41.67643 | 111.51983 | 30267 ft | 452 kts | 334° |
| 2026-05-06 13:36 | 41.73628 | 111.49553 | 30270 ft | 451 kts | 334° |
| 2026-05-06 13:36 | 41.79631 | 111.47109 | 30269 ft | 450 kts | 334° |
| 2026-05-06 13:37 | 41.85606 | 111.44672 | 30263 ft | 450 kts | 334° |
| 2026-05-06 13:37 | 41.91611 | 111.42217 | 30276 ft | 449 kts | 334° |
| 2026-05-06 13:38 | 41.97608 | 111.39761 | 30272 ft | 449 kts | 334° |
| 2026-05-06 13:38 | 42.03569 | 111.37315 | 30279 ft | 449 kts | 334° |
| 2026-05-06 13:39 | 42.09567 | 111.34850 | 30274 ft | 449 kts | 334° |
| 2026-05-06 13:39 | 42.15514 | 111.32401 | 30281 ft | 448 kts | 334° |
| 2026-05-06 13:40 | 42.21476 | 111.29941 | 30286 ft | 447 kts | 334° |
| 2026-05-06 13:40 | 42.27406 | 111.27501 | 30284 ft | 447 kts | 334° |
| 2026-05-06 13:41 | 42.33365 | 111.25050 | 30283 ft | 446 kts | 334° |
| 2026-05-06 13:41 | 42.39310 | 111.22601 | 30281 ft | 445 kts | 334° |
| 2026-05-06 13:42 | 42.45236 | 111.20153 | 30287 ft | 444 kts | 334° |
| 2026-05-06 13:42 | 42.51105 | 111.17720 | 30288 ft | 444 kts | 334° |
| 2026-05-06 13:43 | 42.57020 | 111.15262 | 30290 ft | 443 kts | 334° |
| 2026-05-06 13:43 | 42.62884 | 111.12823 | 30289 ft | 443 kts | 334° |
| 2026-05-06 13:44 | 42.68786 | 111.10363 | 30298 ft | 443 kts | 334° |
| 2026-05-06 13:44 | 42.74696 | 111.07894 | 30301 ft | 443 kts | 334° |
| 2026-05-06 13:45 | 42.80567 | 111.05436 | 30297 ft | 443 kts | 334° |
| 2026-05-06 13:45 | 42.89404 | 111.01728 | 30291 ft | 443 kts | 335° |
| 2026-05-06 13:46 | 42.95319 | 110.99240 | 30301 ft | 444 kts | 335° |
| 2026-05-06 13:46 | 43.01231 | 110.96749 | 30305 ft | 444 kts | 335° |
| 2026-05-06 13:47 | 43.07109 | 110.94268 | 30303 ft | 445 kts | 336° |
| 2026-05-06 13:47 | 43.13045 | 110.91757 | 30301 ft | 446 kts | 336° |
| 2026-05-06 13:48 | 43.18974 | 110.89213 | 30308 ft | 445 kts | 335° |
| 2026-05-06 13:48 | 43.24619 | 110.86049 | 30293 ft | 431 kts | 328° |
| 2026-05-06 13:49 | 43.29746 | 110.81887 | 30311 ft | 430 kts | 323° |
| 2026-05-06 13:49 | 43.34856 | 110.77390 | 30311 ft | 438 kts | 324° |
| 2026-05-06 13:50 | 43.40059 | 110.72986 | 30304 ft | 442 kts | 325° |
| 2026-05-06 13:50 | 43.45378 | 110.68633 | 30303 ft | 444 kts | 326° |
| 2026-05-06 13:51 | 43.50674 | 110.64336 | 30308 ft | 443 kts | 326° |
| 2026-05-06 13:51 | 43.55994 | 110.60001 | 30300 ft | 443 kts | 326° |
| 2026-05-06 13:52 | 43.60394 | 110.56400 | 30302 ft | 442 kts | 326° |
| 2026-05-06 13:52 | 43.66541 | 110.51352 | 30303 ft | 441 kts | 326° |
| 2026-05-06 13:53 | 43.70962 | 110.47714 | 30304 ft | 441 kts | 326° |
| 2026-05-06 13:53 | 43.76206 | 110.43389 | 30305 ft | 441 kts | 326° |
| 2026-05-06 13:54 | 43.81479 | 110.39032 | 30299 ft | 441 kts | 327° |
| 2026-05-06 13:54 | 43.86759 | 110.34661 | 30299 ft | 441 kts | 327° |
| 2026-05-06 13:55 | 43.92014 | 110.30302 | 30299 ft | 442 kts | 327° |
| 2026-05-06 13:55 | 43.97278 | 110.25926 | 30296 ft | 443 kts | 327° |
| 2026-05-06 13:56 | 44.02582 | 110.21507 | 30295 ft | 444 kts | 327° |
| 2026-05-06 13:56 | 44.07881 | 110.17083 | 30277 ft | 444 kts | 327° |
| 2026-05-06 13:57 | 44.13169 | 110.12659 | 30300 ft | 445 kts | 327° |
| 2026-05-06 13:57 | 44.18490 | 110.08197 | 30295 ft | 445 kts | 327° |
| 2026-05-06 13:58 | 44.23784 | 110.03749 | 30287 ft | 446 kts | 327° |
| 2026-05-06 13:58 | 44.29108 | 109.99266 | 30293 ft | 447 kts | 327° |
| 2026-05-06 13:59 | 44.34404 | 109.94796 | 30298 ft | 447 kts | 327° |
| 2026-05-06 13:59 | 44.39743 | 109.90282 | 30291 ft | 448 kts | 327° |
| 2026-05-06 14:00 | 44.45067 | 109.85768 | 30293 ft | 449 kts | 327° |
| 2026-05-06 14:00 | 44.50413 | 109.81220 | 30289 ft | 449 kts | 327° |
| 2026-05-06 14:01 | 44.55770 | 109.76652 | 30287 ft | 450 kts | 327° |
| 2026-05-06 14:01 | 44.61090 | 109.72105 | 30303 ft | 450 kts | 327° |
| 2026-05-06 14:02 | 44.66455 | 109.67511 | 30290 ft | 451 kts | 327° |
| 2026-05-06 14:02 | 44.71832 | 109.62896 | 30302 ft | 452 kts | 327° |
| 2026-05-06 14:03 | 44.77175 | 109.58300 | 30288 ft | 452 kts | 327° |
| 2026-05-06 14:03 | 44.82555 | 109.53662 | 30292 ft | 453 kts | 327° |
| 2026-05-06 14:04 | 44.87906 | 109.49039 | 30286 ft | 453 kts | 327° |
| 2026-05-06 14:04 | 44.93293 | 109.44375 | 30291 ft | 453 kts | 327° |
| 2026-05-06 14:05 | 44.98640 | 109.39736 | 30286 ft | 453 kts | 327° |
| 2026-05-06 14:05 | 45.04020 | 109.35057 | 30284 ft | 453 kts | 328° |
| 2026-05-06 14:06 | 45.09362 | 109.30401 | 30291 ft | 453 kts | 328° |
| 2026-05-06 14:06 | 45.14745 | 109.25698 | 30291 ft | 453 kts | 328° |
| 2026-05-06 14:07 | 45.20109 | 109.21001 | 30290 ft | 453 kts | 328° |
| 2026-05-06 14:07 | 45.25444 | 109.16319 | 30298 ft | 453 kts | 328° |
| 2026-05-06 14:08 | 45.30820 | 109.11591 | 30294 ft | 453 kts | 328° |
| 2026-05-06 14:08 | 45.36159 | 109.06885 | 30302 ft | 453 kts | 328° |
| 2026-05-06 14:09 | 45.41526 | 109.02144 | 30297 ft | 453 kts | 328° |
| 2026-05-06 14:09 | 45.46888 | 108.97395 | 30298 ft | 454 kts | 328° |
| 2026-05-06 14:10 | 45.52255 | 108.92632 | 30298 ft | 454 kts | 328° |
| 2026-05-06 14:10 | 45.57617 | 108.87862 | 30294 ft | 454 kts | 328° |
| 2026-05-06 14:11 | 45.62982 | 108.83078 | 30293 ft | 455 kts | 328° |
| 2026-05-06 14:11 | 45.68315 | 108.78312 | 30288 ft | 455 kts | 328° |
| 2026-05-06 14:12 | 45.73693 | 108.73497 | 30293 ft | 455 kts | 328° |
| 2026-05-06 14:12 | 45.79043 | 108.68697 | 30295 ft | 455 kts | 328° |
| 2026-05-06 14:13 | 45.84419 | 108.63867 | 30293 ft | 456 kts | 328° |
| 2026-05-06 14:13 | 45.89768 | 108.59050 | 30296 ft | 456 kts | 328° |
| 2026-05-06 14:14 | 45.95156 | 108.54186 | 30291 ft | 456 kts | 328° |
| 2026-05-06 14:14 | 46.00495 | 108.49354 | 30295 ft | 456 kts | 328° |
| 2026-05-06 14:15 | 46.05889 | 108.44461 | 30288 ft | 456 kts | 328° |
| 2026-05-06 14:15 | 46.11235 | 108.39599 | 30286 ft | 456 kts | 328° |
| 2026-05-06 14:16 | 46.16571 | 108.34736 | 30286 ft | 456 kts | 328° |
| 2026-05-06 14:16 | 46.21969 | 108.29805 | 30283 ft | 456 kts | 328° |
| 2026-05-06 14:17 | 46.27314 | 108.24910 | 30290 ft | 457 kts | 328° |
| 2026-05-06 14:17 | 46.32693 | 108.19973 | 30290 ft | 457 kts | 328° |
| 2026-05-06 14:18 | 46.38047 | 108.15048 | 30286 ft | 457 kts | 328° |
| 2026-05-06 14:18 | 46.43424 | 108.10089 | 30289 ft | 458 kts | 328° |
| 2026-05-06 14:19 | 46.48808 | 108.05113 | 30290 ft | 458 kts | 328° |
| 2026-05-06 14:19 | 46.54158 | 108.00156 | 30291 ft | 458 kts | 328° |
| 2026-05-06 14:20 | 46.59516 | 107.95179 | 30278 ft | 458 kts | 328° |
| 2026-05-06 14:20 | 46.64895 | 107.90171 | 30291 ft | 458 kts | 328° |
| 2026-05-06 14:21 | 46.70253 | 107.85171 | 30296 ft | 459 kts | 328° |
| 2026-05-06 14:21 | 46.75634 | 107.80137 | 30295 ft | 459 kts | 328° |
| 2026-05-06 14:22 | 46.81016 | 107.75090 | 30287 ft | 459 kts | 328° |
| 2026-05-06 14:22 | 46.86368 | 107.70059 | 30298 ft | 459 kts | 328° |
| 2026-05-06 14:23 | 46.91740 | 107.64997 | 30290 ft | 459 kts | 328° |
| 2026-05-06 14:23 | 46.97124 | 107.59911 | 30299 ft | 460 kts | 328° |
| 2026-05-06 14:24 | 47.02470 | 107.54849 | 30291 ft | 460 kts | 328° |
| 2026-05-06 14:24 | 47.07851 | 107.49741 | 30296 ft | 460 kts | 328° |
| 2026-05-06 14:25 | 47.13236 | 107.44619 | 30301 ft | 460 kts | 328° |
| 2026-05-06 14:25 | 47.18588 | 107.39522 | 30283 ft | 460 kts | 328° |
| 2026-05-06 14:26 | 47.23967 | 107.34385 | 30282 ft | 460 kts | 328° |
| 2026-05-06 14:26 | 47.29347 | 107.29234 | 30276 ft | 460 kts | 328° |
| 2026-05-06 14:27 | 47.34684 | 107.24110 | 30290 ft | 460 kts | 328° |
| 2026-05-06 14:27 | 47.40056 | 107.18939 | 30279 ft | 460 kts | 328° |
| 2026-05-06 14:28 | 47.45416 | 107.13767 | 30278 ft | 459 kts | 328° |
| 2026-05-06 14:28 | 47.50744 | 107.08614 | 30275 ft | 459 kts | 328° |
| 2026-05-06 14:29 | 47.56109 | 107.03413 | 30273 ft | 460 kts | 328° |
| 2026-05-06 14:29 | 47.61438 | 106.98234 | 30256 ft | 460 kts | 328° |
| 2026-05-06 14:30 | 47.66764 | 106.93043 | 30269 ft | 459 kts | 328° |
| 2026-05-06 14:30 | 47.72124 | 106.87807 | 30275 ft | 459 kts | 328° |
| 2026-05-06 14:31 | 47.77447 | 106.82594 | 30269 ft | 459 kts | 328° |
| 2026-05-06 14:31 | 47.82784 | 106.77355 | 30265 ft | 459 kts | 328° |
| 2026-05-06 14:32 | 47.88165 | 106.72224 | 30260 ft | 458 kts | 331° |
| 2026-05-06 14:32 | 47.93770 | 106.67804 | 30266 ft | 455 kts | 335° |
| 2026-05-06 14:33 | 47.99482 | 106.63977 | 30279 ft | 448 kts | 338° |
| 2026-05-06 14:33 | 48.05244 | 106.60276 | 30273 ft | 457 kts | 337° |
| 2026-05-06 14:34 | 48.11080 | 106.56320 | 30268 ft | 460 kts | 336° |
| 2026-05-06 14:34 | 48.16849 | 106.52247 | 30272 ft | 459 kts | 335° |
| 2026-05-06 14:35 | 48.22624 | 106.48115 | 30267 ft | 459 kts | 335° |
| 2026-05-06 14:35 | 48.28386 | 106.43990 | 30270 ft | 458 kts | 335° |
| 2026-05-06 14:36 | 48.34143 | 106.39871 | 30265 ft | 458 kts | 335° |
| 2026-05-06 14:36 | 48.39869 | 106.35770 | 30265 ft | 458 kts | 335° |
| 2026-05-06 14:37 | 48.45623 | 106.31639 | 30267 ft | 458 kts | 335° |
| 2026-05-06 14:37 | 48.51381 | 106.27492 | 30263 ft | 457 kts | 335° |
| 2026-05-06 14:38 | 48.57098 | 106.23365 | 30254 ft | 457 kts | 335° |
| 2026-05-06 14:38 | 48.62822 | 106.19222 | 30256 ft | 457 kts | 335° |
| 2026-05-06 14:39 | 48.67598 | 106.15758 | 30240 ft | 457 kts | 335° |
| 2026-05-06 14:39 | 48.74270 | 106.10905 | 30242 ft | 456 kts | 335° |
| 2026-05-06 14:40 | 48.79073 | 106.07403 | 30238 ft | 456 kts | 335° |
| 2026-05-06 14:40 | 48.84744 | 106.03259 | 30237 ft | 455 kts | 335° |
| 2026-05-06 14:41 | 48.90460 | 105.99071 | 30232 ft | 454 kts | 335° |
| 2026-05-06 14:41 | 48.96153 | 105.94889 | 30226 ft | 454 kts | 335° |
| 2026-05-06 14:42 | 49.01818 | 105.90717 | 30218 ft | 453 kts | 335° |
| 2026-05-06 14:42 | 49.07459 | 105.86553 | 30219 ft | 452 kts | 335° |
| 2026-05-06 14:43 | 49.13132 | 105.82354 | 30217 ft | 451 kts | 335° |
| 2026-05-06 14:43 | 49.18765 | 105.78174 | 30213 ft | 451 kts | 335° |
| 2026-05-06 14:44 | 49.24414 | 105.73971 | 30212 ft | 450 kts | 335° |
| 2026-05-06 14:45 | 49.32864 | 105.67665 | 30214 ft | 449 kts | 335° |
| 2026-05-06 14:45 | 49.38453 | 105.63479 | 30214 ft | 448 kts | 335° |
| 2026-05-06 14:46 | 49.44047 | 105.59281 | 30207 ft | 448 kts | 335° |
| 2026-05-06 14:46 | 49.49651 | 105.55064 | 30209 ft | 447 kts | 335° |
| 2026-05-06 14:47 | 49.55235 | 105.50852 | 30201 ft | 446 kts | 335° |
| 2026-05-06 14:47 | 49.60769 | 105.46665 | 30208 ft | 445 kts | 335° |
| 2026-05-06 14:48 | 49.66348 | 105.42434 | 30209 ft | 445 kts | 335° |
| 2026-05-06 14:48 | 49.71875 | 105.38233 | 30211 ft | 445 kts | 335° |
| 2026-05-06 14:49 | 49.77447 | 105.33986 | 30202 ft | 445 kts | 335° |
| 2026-05-06 14:49 | 49.82978 | 105.29760 | 30214 ft | 445 kts | 335° |
| 2026-05-06 14:50 | 49.88534 | 105.25502 | 30207 ft | 444 kts | 335° |
| 2026-05-06 14:50 | 49.94075 | 105.21246 | 30203 ft | 444 kts | 335° |
| 2026-05-06 14:51 | 49.99572 | 105.17013 | 30207 ft | 443 kts | 335° |
| 2026-05-06 14:51 | 50.05087 | 105.12755 | 30213 ft | 442 kts | 335° |
| 2026-05-06 14:52 | 50.10604 | 105.08484 | 30218 ft | 442 kts | 335° |
| 2026-05-06 14:52 | 50.16094 | 105.04224 | 30209 ft | 442 kts | 335° |
| 2026-05-06 14:53 | 50.21598 | 104.99940 | 30220 ft | 442 kts | 335° |
| 2026-05-06 14:53 | 50.27085 | 104.95659 | 30217 ft | 441 kts | 335° |
| 2026-05-06 14:54 | 50.32586 | 104.91356 | 30207 ft | 441 kts | 335° |
| 2026-05-06 14:54 | 50.38078 | 104.87051 | 30219 ft | 440 kts | 335° |
| 2026-05-06 14:55 | 50.43585 | 104.82776 | 30215 ft | 441 kts | 335° |
| 2026-05-06 14:55 | 50.49063 | 104.78537 | 30209 ft | 441 kts | 335° |
| 2026-05-06 14:56 | 50.54576 | 104.74249 | 30207 ft | 440 kts | 335° |
| 2026-05-06 14:56 | 50.60040 | 104.69985 | 30205 ft | 440 kts | 335° |
| 2026-05-06 14:57 | 50.65534 | 104.65692 | 30196 ft | 440 kts | 335° |
| 2026-05-06 14:57 | 50.70989 | 104.61425 | 30192 ft | 439 kts | 335° |
| 2026-05-06 14:58 | 50.76478 | 104.57117 | 30201 ft | 439 kts | 335° |
| 2026-05-06 14:58 | 50.81950 | 104.52810 | 30209 ft | 438 kts | 335° |
| 2026-05-06 14:59 | 50.87382 | 104.48524 | 30190 ft | 438 kts | 334° |
| 2026-05-06 14:59 | 50.92816 | 104.44224 | 30176 ft | 437 kts | 334° |
| 2026-05-06 15:00 | 50.98255 | 104.39909 | 30189 ft | 436 kts | 334° |
| 2026-05-06 15:00 | 51.03687 | 104.35575 | 30193 ft | 435 kts | 334° |
| 2026-05-06 15:01 | 51.09079 | 104.31261 | 30155 ft | 435 kts | 334° |
| 2026-05-06 15:01 | 51.14479 | 104.26930 | 30165 ft | 434 kts | 334° |
| 2026-05-06 15:02 | 51.19882 | 104.22577 | 30170 ft | 433 kts | 334° |
| 2026-05-06 15:02 | 51.25233 | 104.18249 | 30153 ft | 433 kts | 334° |
| 2026-05-06 15:03 | 51.30630 | 104.13876 | 30156 ft | 434 kts | 334° |
| 2026-05-06 15:03 | 51.36000 | 104.09514 | 30137 ft | 433 kts | 334° |
| 2026-05-06 15:04 | 51.41357 | 104.05151 | 30157 ft | 433 kts | 334° |
| 2026-05-06 15:04 | 51.46722 | 104.00767 | 30147 ft | 434 kts | 334° |
| 2026-05-06 15:05 | 51.52113 | 103.96351 | 30102 ft | 433 kts | 334° |
| 2026-05-06 15:05 | 51.57448 | 103.91972 | 30158 ft | 432 kts | 334° |
| 2026-05-06 15:06 | 51.62819 | 103.87550 | 30141 ft | 433 kts | 334° |
| 2026-05-06 15:06 | 51.68199 | 103.83110 | 30150 ft | 433 kts | 333° |
| 2026-05-06 15:07 | 51.73546 | 103.78697 | 30139 ft | 433 kts | 333° |
| 2026-05-06 15:07 | 51.78893 | 103.74277 | 30161 ft | 433 kts | 333° |
| 2026-05-06 15:08 | 51.84260 | 103.69826 | 30152 ft | 434 kts | 333° |
| 2026-05-06 15:08 | 51.89646 | 103.65349 | 30158 ft | 435 kts | 333° |
| 2026-05-06 15:09 | 51.95013 | 103.60883 | 30154 ft | 435 kts | 333° |
| 2026-05-06 15:09 | 52.00414 | 103.56392 | 30135 ft | 434 kts | 333° |
| 2026-05-06 15:10 | 52.05759 | 103.51937 | 30135 ft | 433 kts | 333° |
| 2026-05-06 15:10 | 52.11121 | 103.47453 | 30135 ft | 432 kts | 333° |
| 2026-05-06 15:11 | 52.16440 | 103.42990 | 30129 ft | 431 kts | 333° |
| 2026-05-06 15:11 | 52.21780 | 103.38499 | 30122 ft | 430 kts | 333° |
| 2026-05-06 15:12 | 52.27080 | 103.34028 | 30113 ft | 430 kts | 333° |
| 2026-05-06 15:12 | 52.32408 | 103.29520 | 30111 ft | 430 kts | 333° |
| 2026-05-06 15:13 | 52.37688 | 103.25043 | 30109 ft | 429 kts | 333° |
| 2026-05-06 15:13 | 52.42833 | 103.20145 | 30092 ft | 423 kts | 326° |
| 2026-05-06 15:13 | 52.45076 | 103.17054 | 30095 ft | 423 kts | 315° |
| 2026-05-06 15:14 | 52.46856 | 103.13133 | 30123 ft | 432 kts | 305° |
| 2026-05-06 15:14 | 52.49775 | 103.04584 | 30096 ft | 426 kts | 304° |
| 2026-05-06 15:15 | 52.52931 | 102.96479 | 30106 ft | 421 kts | 309° |
| 2026-05-06 15:15 | 52.56373 | 102.88560 | 30103 ft | 430 kts | 309° |
| 2026-05-06 15:16 | 52.59779 | 102.80388 | 30107 ft | 434 kts | 308° |
| 2026-05-06 15:16 | 52.63092 | 102.72069 | 30103 ft | 433 kts | 307° |
| 2026-05-06 15:17 | 52.66335 | 102.63785 | 30105 ft | 432 kts | 307° |
| 2026-05-06 15:17 | 52.69586 | 102.55456 | 30114 ft | 431 kts | 307° |
| 2026-05-06 15:18 | 52.72834 | 102.47133 | 30101 ft | 429 kts | 307° |
| 2026-05-06 15:18 | 52.76046 | 102.38888 | 30106 ft | 428 kts | 307° |
| 2026-05-06 15:19 | 52.79268 | 102.30595 | 30102 ft | 427 kts | 307° |
| 2026-05-06 15:19 | 52.82453 | 102.22368 | 30110 ft | 426 kts | 307° |
| 2026-05-06 15:20 | 52.85661 | 102.14055 | 30103 ft | 427 kts | 306° |
| 2026-05-06 15:20 | 52.88831 | 102.05809 | 30103 ft | 427 kts | 306° |
| 2026-05-06 15:21 | 52.92023 | 101.97480 | 30109 ft | 427 kts | 306° |
| 2026-05-06 15:21 | 52.95209 | 101.89140 | 30116 ft | 428 kts | 306° |
| 2026-05-06 15:22 | 52.98368 | 101.80841 | 30112 ft | 428 kts | 306° |
| 2026-05-06 15:22 | 53.01536 | 101.72491 | 30104 ft | 428 kts | 306° |
| 2026-05-06 15:23 | 53.04710 | 101.64098 | 30108 ft | 427 kts | 306° |
| 2026-05-06 15:23 | 53.07864 | 101.55730 | 30110 ft | 427 kts | 306° |
| 2026-05-06 15:24 | 53.10995 | 101.47395 | 30112 ft | 427 kts | 305° |
| 2026-05-06 15:24 | 53.14141 | 101.38992 | 30109 ft | 426 kts | 305° |
| 2026-05-06 15:25 | 53.16747 | 101.32010 | 30104 ft | 426 kts | 305° |
| 2026-05-06 15:25 | 53.20391 | 101.22215 | 30107 ft | 426 kts | 305° |
| 2026-05-06 15:26 | 53.22995 | 101.15192 | 30103 ft | 427 kts | 305° |
| 2026-05-06 15:26 | 53.26119 | 101.06740 | 30102 ft | 427 kts | 304° |
| 2026-05-06 15:27 | 53.29222 | 100.98320 | 30106 ft | 428 kts | 304° |
| 2026-05-06 15:27 | 53.32351 | 100.89794 | 30092 ft | 428 kts | 304° |
| 2026-05-06 15:28 | 53.35442 | 100.81337 | 30099 ft | 428 kts | 304° |
| 2026-05-06 15:28 | 53.38549 | 100.72811 | 30094 ft | 428 kts | 304° |
| 2026-05-06 15:29 | 53.41651 | 100.64266 | 30089 ft | 428 kts | 304° |
| 2026-05-06 15:29 | 53.44727 | 100.55763 | 30092 ft | 429 kts | 304° |
| 2026-05-06 15:30 | 53.47823 | 100.47180 | 30084 ft | 428 kts | 304° |
| 2026-05-06 15:30 | 53.50885 | 100.38659 | 30082 ft | 428 kts | 303° |
| 2026-05-06 15:31 | 53.53971 | 100.30040 | 30093 ft | 429 kts | 303° |
| 2026-05-06 15:31 | 53.56943 | 100.21713 | 30095 ft | 429 kts | 303° |
| 2026-05-06 15:32 | 53.61558 | 100.08730 | 30094 ft | 429 kts | 303° |
| 2026-05-06 15:32 | 53.64605 | 100.00119 | 30093 ft | 430 kts | 303° |
| 2026-05-06 15:33 | 53.67667 | 99.91433 | 30091 ft | 430 kts | 303° |
| 2026-05-06 15:33 | 53.70722 | 99.82740 | 30108 ft | 430 kts | 303° |
| 2026-05-06 15:34 | 53.73749 | 99.74095 | 30089 ft | 430 kts | 302° |
| 2026-05-06 15:34 | 53.76799 | 99.65354 | 30110 ft | 430 kts | 302° |
| 2026-05-06 15:35 | 53.79814 | 99.56680 | 30110 ft | 430 kts | 302° |
| 2026-05-06 15:35 | 53.82848 | 99.47925 | 30098 ft | 431 kts | 302° |
| 2026-05-06 15:36 | 53.85863 | 99.39190 | 30091 ft | 431 kts | 302° |
| 2026-05-06 15:36 | 53.88888 | 99.30397 | 30097 ft | 431 kts | 302° |
| 2026-05-06 15:37 | 53.91912 | 99.21576 | 30100 ft | 432 kts | 302° |
| 2026-05-06 15:37 | 53.94910 | 99.12795 | 30088 ft | 432 kts | 301° |
| 2026-05-06 15:38 | 53.97920 | 99.03952 | 30093 ft | 431 kts | 301° |
| 2026-05-06 15:38 | 54.00908 | 98.95138 | 30087 ft | 432 kts | 301° |
| 2026-05-06 15:39 | 54.03904 | 98.86274 | 30090 ft | 431 kts | 301° |
| 2026-05-06 15:39 | 54.06891 | 98.77403 | 30099 ft | 431 kts | 301° |
| 2026-05-06 15:40 | 54.09847 | 98.68599 | 30102 ft | 431 kts | 301° |
| 2026-05-06 15:40 | 54.12819 | 98.59714 | 30096 ft | 432 kts | 301° |
| 2026-05-06 15:41 | 54.15793 | 98.50793 | 30099 ft | 431 kts | 301° |
| 2026-05-06 15:41 | 54.18757 | 98.41862 | 30106 ft | 432 kts | 301° |
| 2026-05-06 15:42 | 54.21702 | 98.32959 | 30097 ft | 432 kts | 300° |
| 2026-05-06 15:42 | 54.24664 | 98.23970 | 30100 ft | 432 kts | 300° |
| 2026-05-06 15:43 | 54.27598 | 98.15035 | 30107 ft | 433 kts | 300° |
| 2026-05-06 15:43 | 54.30549 | 98.06011 | 30104 ft | 433 kts | 300° |
| 2026-05-06 15:44 | 54.33488 | 97.96999 | 30105 ft | 432 kts | 300° |
| 2026-05-06 15:44 | 54.36414 | 97.88018 | 30105 ft | 433 kts | 300° |
| 2026-05-06 15:45 | 54.39338 | 97.79061 | 30103 ft | 433 kts | 300° |
| 2026-05-06 15:45 | 54.42282 | 97.70011 | 30100 ft | 433 kts | 300° |
| 2026-05-06 15:46 | 54.45212 | 97.60962 | 30100 ft | 433 kts | 300° |
| 2026-05-06 15:46 | 54.48117 | 97.51952 | 30100 ft | 433 kts | 299° |
| 2026-05-06 15:47 | 54.51037 | 97.42860 | 30098 ft | 433 kts | 299° |
| 2026-05-06 15:47 | 54.53933 | 97.33810 | 30102 ft | 433 kts | 299° |
| 2026-05-06 15:48 | 54.56850 | 97.24661 | 30092 ft | 434 kts | 299° |
| 2026-05-06 15:48 | 54.59730 | 97.15593 | 30107 ft | 434 kts | 299° |
| 2026-05-06 15:49 | 54.62634 | 97.06412 | 30101 ft | 435 kts | 299° |
| 2026-05-06 15:49 | 54.65528 | 96.97229 | 30094 ft | 435 kts | 298° |
| 2026-05-06 15:50 | 54.68400 | 96.88084 | 30094 ft | 435 kts | 298° |
| 2026-05-06 15:50 | 54.71288 | 96.78848 | 30428 ft | 435 kts | 298° |
| 2026-05-06 15:51 | 54.72725 | 96.74242 | 30794 ft | 433 kts | 298° |
| 2026-05-06 15:51 | 54.74130 | 96.69728 | 31149 ft | 431 kts | 298° |
| 2026-05-06 15:51 | 54.75543 | 96.65174 | 31470 ft | 429 kts | 298° |
| 2026-05-06 15:51 | 54.76935 | 96.60579 | 31763 ft | 428 kts | 297° |
| 2026-05-06 15:52 | 54.78300 | 96.55990 | 32046 ft | 428 kts | 297° |
| 2026-05-06 15:52 | 54.79644 | 96.51430 | 32333 ft | 427 kts | 297° |
| 2026-05-06 15:52 | 54.81001 | 96.46814 | 32645 ft | 426 kts | 297° |
| 2026-05-06 15:52 | 54.82342 | 96.42249 | 32926 ft | 425 kts | 297° |
| 2026-05-06 15:53 | 54.85020 | 96.33142 | 33052 ft | 426 kts | 297° |
| 2026-05-06 15:53 | 54.87726 | 96.23934 | 33067 ft | 425 kts | 297° |
| 2026-05-06 15:54 | 54.90386 | 96.14848 | 33071 ft | 424 kts | 297° |
| 2026-05-06 15:54 | 54.93060 | 96.05678 | 33067 ft | 423 kts | 297° |
| 2026-05-06 15:55 | 54.95718 | 95.96525 | 33072 ft | 423 kts | 296° |
| 2026-05-06 15:55 | 54.98362 | 95.87383 | 33069 ft | 424 kts | 296° |
| 2026-05-06 15:56 | 55.01015 | 95.78177 | 33057 ft | 425 kts | 296° |
| 2026-05-06 15:56 | 55.03649 | 95.68997 | 33059 ft | 425 kts | 296° |
| 2026-05-06 15:57 | 55.06296 | 95.59736 | 33045 ft | 426 kts | 296° |
| 2026-05-06 15:57 | 55.08919 | 95.50522 | 33049 ft | 426 kts | 296° |
| 2026-05-06 15:58 | 55.11561 | 95.41208 | 33043 ft | 426 kts | 296° |
| 2026-05-06 15:58 | 55.14175 | 95.31953 | 33043 ft | 427 kts | 296° |
| 2026-05-06 15:59 | 55.16804 | 95.22607 | 33038 ft | 427 kts | 296° |
| 2026-05-06 15:59 | 55.19408 | 95.13313 | 33035 ft | 427 kts | 295° |
| 2026-05-06 16:00 | 55.22024 | 95.03935 | 33027 ft | 427 kts | 295° |
| 2026-05-06 16:00 | 55.24631 | 94.94555 | 33016 ft | 427 kts | 295° |
| 2026-05-06 16:01 | 55.27278 | 94.85298 | 33020 ft | 426 kts | 297° |
| 2026-05-06 16:01 | 55.30249 | 94.76262 | 33030 ft | 427 kts | 300° |
| 2026-05-06 16:02 | 55.33298 | 94.67322 | 33017 ft | 428 kts | 299° |
| 2026-05-06 16:02 | 55.36341 | 94.58293 | 33019 ft | 429 kts | 299° |
| 2026-05-06 16:03 | 55.39340 | 94.49257 | 33009 ft | 429 kts | 298° |
| 2026-05-06 16:03 | 55.42337 | 94.40154 | 33013 ft | 430 kts | 298° |
| 2026-05-06 16:04 | 55.45320 | 94.31060 | 33009 ft | 430 kts | 298° |
| 2026-05-06 16:04 | 55.48315 | 94.21902 | 33002 ft | 431 kts | 298° |
| 2026-05-06 16:05 | 55.51297 | 94.12749 | 32998 ft | 432 kts | 298° |
| 2026-05-06 16:05 | 55.54291 | 94.03528 | 33000 ft | 432 kts | 298° |
| 2026-05-06 16:06 | 55.57269 | 93.94316 | 32994 ft | 433 kts | 298° |
| 2026-05-06 16:06 | 55.60255 | 93.85049 | 32993 ft | 433 kts | 298° |
| 2026-05-06 16:07 | 55.63235 | 93.75759 | 32983 ft | 434 kts | 297° |
| 2026-05-06 16:07 | 55.66196 | 93.66496 | 32985 ft | 434 kts | 297° |
| 2026-05-06 16:08 | 55.69169 | 93.57156 | 32971 ft | 435 kts | 297° |
| 2026-05-06 16:08 | 55.72138 | 93.47799 | 32975 ft | 435 kts | 297° |
| 2026-05-06 16:09 | 55.75087 | 93.38458 | 32968 ft | 435 kts | 297° |
| 2026-05-06 16:09 | 55.78002 | 93.29005 | 32965 ft | 435 kts | 296° |
| 2026-05-06 16:10 | 55.80887 | 93.19520 | 32960 ft | 436 kts | 296° |
| 2026-05-06 16:10 | 55.83755 | 93.10074 | 32962 ft | 436 kts | 296° |
| 2026-05-06 16:11 | 55.86646 | 93.00535 | 32936 ft | 437 kts | 296° |
| 2026-05-06 16:11 | 55.89046 | 92.92597 | 32963 ft | 437 kts | 296° |
| 2026-05-06 16:12 | 55.92393 | 92.81477 | 32956 ft | 437 kts | 296° |
| 2026-05-06 16:12 | 55.94782 | 92.73504 | 32956 ft | 438 kts | 296° |
| 2026-05-06 16:13 | 55.97655 | 92.63880 | 32936 ft | 438 kts | 296° |
| 2026-05-06 16:13 | 56.00495 | 92.54335 | 32941 ft | 438 kts | 296° |
| 2026-05-06 16:14 | 56.03353 | 92.44696 | 32952 ft | 438 kts | 296° |
| 2026-05-06 16:14 | 56.06216 | 92.35014 | 32944 ft | 438 kts | 296° |
| 2026-05-06 16:15 | 56.09047 | 92.25409 | 32946 ft | 438 kts | 296° |
| 2026-05-06 16:15 | 56.11892 | 92.15717 | 32943 ft | 438 kts | 296° |
| 2026-05-06 16:16 | 56.14702 | 92.06099 | 32940 ft | 437 kts | 296° |
| 2026-05-06 16:16 | 56.17521 | 91.96410 | 32947 ft | 437 kts | 296° |
| 2026-05-06 16:17 | 56.20331 | 91.86710 | 32936 ft | 437 kts | 296° |
| 2026-05-06 16:17 | 56.23117 | 91.77053 | 32933 ft | 436 kts | 296° |
| 2026-05-06 16:18 | 56.25913 | 91.67323 | 32930 ft | 436 kts | 296° |
| 2026-05-06 16:18 | 56.28672 | 91.57682 | 32934 ft | 436 kts | 296° |
| 2026-05-06 16:19 | 56.31445 | 91.47953 | 32931 ft | 436 kts | 296° |
| 2026-05-06 16:19 | 56.34190 | 91.38276 | 32934 ft | 436 kts | 296° |
| 2026-05-06 16:20 | 56.36956 | 91.28489 | 32926 ft | 436 kts | 295° |
| 2026-05-06 16:20 | 56.39695 | 91.18755 | 32930 ft | 436 kts | 296° |
| 2026-05-06 16:21 | 56.42435 | 91.08974 | 32922 ft | 436 kts | 295° |
| 2026-05-06 16:21 | 56.45151 | 90.99237 | 32926 ft | 436 kts | 295° |
| 2026-05-06 16:22 | 56.47883 | 90.89403 | 32922 ft | 436 kts | 295° |
| 2026-05-06 16:22 | 56.50601 | 90.79579 | 32923 ft | 436 kts | 295° |
| 2026-05-06 16:23 | 56.53294 | 90.69801 | 32916 ft | 436 kts | 295° |
| 2026-05-06 16:23 | 56.55981 | 90.60006 | 32921 ft | 435 kts | 295° |
| 2026-05-06 16:24 | 56.58673 | 90.50148 | 32915 ft | 434 kts | 295° |
| 2026-05-06 16:24 | 56.61350 | 90.40304 | 32917 ft | 434 kts | 295° |
| 2026-05-06 16:25 | 56.63997 | 90.30525 | 32912 ft | 433 kts | 295° |
| 2026-05-06 16:25 | 56.66649 | 90.20688 | 32921 ft | 432 kts | 295° |
| 2026-05-06 16:26 | 56.69270 | 90.10923 | 32915 ft | 431 kts | 295° |
| 2026-05-06 16:26 | 56.71898 | 90.01088 | 32918 ft | 430 kts | 295° |
| 2026-05-06 16:27 | 56.74491 | 89.91340 | 32909 ft | 429 kts | 295° |
| 2026-05-06 16:27 | 56.77098 | 89.81500 | 32922 ft | 429 kts | 295° |
| 2026-05-06 16:28 | 56.79679 | 89.71720 | 32916 ft | 430 kts | 295° |
| 2026-05-06 16:28 | 56.82269 | 89.61862 | 32917 ft | 430 kts | 295° |
| 2026-05-06 16:29 | 56.84842 | 89.52021 | 32916 ft | 430 kts | 295° |
| 2026-05-06 16:29 | 56.87412 | 89.42148 | 32913 ft | 430 kts | 295° |
| 2026-05-06 16:30 | 56.89539 | 89.33947 | 32910 ft | 430 kts | 295° |
| 2026-05-06 16:30 | 56.92519 | 89.22402 | 32913 ft | 430 kts | 295° |
| 2026-05-06 16:31 | 56.95069 | 89.12478 | 32912 ft | 430 kts | 295° |
| 2026-05-06 16:31 | 56.97610 | 89.02543 | 32911 ft | 429 kts | 295° |
| 2026-05-06 16:32 | 57.00124 | 88.92670 | 32912 ft | 429 kts | 295° |
| 2026-05-06 16:32 | 57.02649 | 88.82708 | 32908 ft | 429 kts | 295° |
| 2026-05-06 16:33 | 57.05153 | 88.72788 | 32909 ft | 429 kts | 295° |
| 2026-05-06 16:34 | 57.08903 | 88.57843 | 32913 ft | 429 kts | 295° |
| 2026-05-06 16:34 | 57.11380 | 88.47916 | 32911 ft | 429 kts | 294° |
| 2026-05-06 16:35 | 57.13869 | 88.37904 | 32913 ft | 429 kts | 294° |
| 2026-05-06 16:35 | 57.16347 | 88.27883 | 32915 ft | 429 kts | 294° |
| 2026-05-06 16:36 | 57.18799 | 88.17911 | 32920 ft | 429 kts | 294° |
| 2026-05-06 16:36 | 57.21263 | 88.07835 | 32922 ft | 430 kts | 294° |
| 2026-05-06 16:37 | 57.23704 | 87.97810 | 32914 ft | 430 kts | 294° |
| 2026-05-06 16:37 | 57.26153 | 87.87706 | 32923 ft | 430 kts | 294° |
| 2026-05-06 16:38 | 57.28580 | 87.77647 | 32918 ft | 430 kts | 294° |
| 2026-05-06 16:38 | 57.31013 | 87.67517 | 32917 ft | 430 kts | 294° |
| 2026-05-06 16:39 | 57.33424 | 87.57434 | 32923 ft | 430 kts | 294° |
| 2026-05-06 16:39 | 57.35844 | 87.47263 | 32918 ft | 430 kts | 294° |
| 2026-05-06 16:40 | 57.38240 | 87.37148 | 32922 ft | 430 kts | 294° |
| 2026-05-06 16:40 | 57.40643 | 87.26953 | 32915 ft | 430 kts | 294° |
| 2026-05-06 16:41 | 57.43030 | 87.16781 | 32918 ft | 430 kts | 294° |
| 2026-05-06 16:41 | 57.45413 | 87.06572 | 32923 ft | 430 kts | 294° |
| 2026-05-06 16:42 | 57.47778 | 86.96397 | 32924 ft | 430 kts | 294° |
| 2026-05-06 16:42 | 57.50128 | 86.86234 | 32917 ft | 427 kts | 294° |
| 2026-05-06 16:43 | 57.52458 | 86.76112 | 32923 ft | 426 kts | 294° |
| 2026-05-06 16:43 | 57.54779 | 86.65982 | 32926 ft | 424 kts | 294° |
| 2026-05-06 16:44 | 57.57075 | 86.55911 | 32918 ft | 421 kts | 294° |
| 2026-05-06 16:44 | 57.59340 | 86.45931 | 32912 ft | 417 kts | 294° |
| 2026-05-06 16:45 | 57.61579 | 86.36016 | 32917 ft | 413 kts | 294° |
| 2026-05-06 16:45 | 57.63797 | 86.26150 | 32918 ft | 410 kts | 294° |
| 2026-05-06 16:46 | 57.65991 | 86.16344 | 32924 ft | 407 kts | 293° |
| 2026-05-06 16:46 | 57.68158 | 86.06612 | 32920 ft | 406 kts | 293° |
| 2026-05-06 16:47 | 57.70318 | 85.96870 | 32914 ft | 402 kts | 293° |
| 2026-05-06 16:47 | 57.72442 | 85.87247 | 32920 ft | 401 kts | 293° |
| 2026-05-06 16:48 | 57.74546 | 85.77665 | 32922 ft | 399 kts | 293° |
| 2026-05-06 16:48 | 57.76639 | 85.68092 | 32924 ft | 395 kts | 293° |
| 2026-05-06 16:49 | 57.78712 | 85.58567 | 32924 ft | 392 kts | 293° |
| 2026-05-06 16:49 | 57.80755 | 85.49137 | 32924 ft | 390 kts | 292° |
| 2026-05-06 16:50 | 57.82789 | 85.39705 | 32928 ft | 389 kts | 292° |
| 2026-05-06 16:50 | 57.84803 | 85.30322 | 32946 ft | 390 kts | 292° |
| 2026-05-06 16:51 | 57.86822 | 85.20877 | 32924 ft | 387 kts | 292° |
| 2026-05-06 16:51 | 57.88816 | 85.11502 | 32935 ft | 390 kts | 292° |
| 2026-05-06 16:52 | 57.90822 | 85.02030 | 32933 ft | 388 kts | 292° |
| 2026-05-06 16:52 | 57.92817 | 84.92564 | 32929 ft | 388 kts | 292° |
| 2026-05-06 16:53 | 57.94785 | 84.83183 | 32945 ft | 387 kts | 292° |
| 2026-05-06 16:53 | 57.96758 | 84.73733 | 32948 ft | 387 kts | 291° |
| 2026-05-06 16:54 | 57.98715 | 84.64320 | 32943 ft | 387 kts | 291° |
| 2026-05-06 16:54 | 58.00657 | 84.54932 | 32948 ft | 387 kts | 291° |
| 2026-05-06 16:55 | 58.02607 | 84.45464 | 32942 ft | 386 kts | 291° |
| 2026-05-06 16:55 | 58.04535 | 84.36054 | 32945 ft | 386 kts | 291° |
| 2026-05-06 16:56 | 58.06468 | 84.26580 | 32942 ft | 385 kts | 291° |
| 2026-05-06 16:56 | 58.08376 | 84.17184 | 32943 ft | 384 kts | 291° |
| 2026-05-06 16:57 | 58.10293 | 84.07697 | 32941 ft | 384 kts | 290° |
| 2026-05-06 16:57 | 58.11632 | 84.01044 | 32942 ft | 384 kts | 290° |
| 2026-05-06 16:58 | 58.13529 | 83.91581 | 32940 ft | 384 kts | 290° |
| 2026-05-06 16:58 | 58.15415 | 83.82126 | 32942 ft | 384 kts | 290° |
| 2026-05-06 16:59 | 58.17282 | 83.72722 | 32945 ft | 383 kts | 290° |
| 2026-05-06 16:59 | 58.19152 | 83.63258 | 32939 ft | 383 kts | 290° |
| 2026-05-06 17:00 | 58.21010 | 83.53811 | 32949 ft | 383 kts | 290° |
| 2026-05-06 17:00 | 58.22862 | 83.44351 | 32941 ft | 382 kts | 289° |
| 2026-05-06 17:01 | 58.24401 | 83.36451 | 32941 ft | 385 kts | 289° |
| 2026-05-06 17:01 | 58.26247 | 83.26938 | 32942 ft | 382 kts | 289° |
| 2026-05-06 17:02 | 58.28078 | 83.17453 | 32948 ft | 385 kts | 289° |
| 2026-05-06 17:02 | 58.29914 | 83.07898 | 32943 ft | 384 kts | 289° |
| 2026-05-06 17:03 | 58.31731 | 82.98395 | 32945 ft | 384 kts | 289° |
| 2026-05-06 17:03 | 58.33652 | 82.88790 | 32958 ft | 392 kts | 291° |
| 2026-05-06 17:04 | 58.35805 | 82.79136 | 32958 ft | 404 kts | 292° |
| 2026-05-06 17:04 | 58.38064 | 82.69143 | 32956 ft | 414 kts | 291° |
| 2026-05-06 17:05 | 58.40348 | 82.58901 | 32957 ft | 422 kts | 291° |
| 2026-05-06 17:05 | 58.42629 | 82.48541 | 32955 ft | 428 kts | 291° |
| 2026-05-06 17:06 | 58.44926 | 82.38037 | 32947 ft | 429 kts | 291° |
| 2026-05-06 17:06 | 58.47228 | 82.27454 | 32941 ft | 429 kts | 291° |
| 2026-05-06 17:07 | 58.49499 | 82.16966 | 32943 ft | 429 kts | 291° |
| 2026-05-06 17:07 | 58.51775 | 82.06401 | 32941 ft | 428 kts | 291° |
| 2026-05-06 17:08 | 58.54026 | 81.95904 | 32943 ft | 428 kts | 290° |
| 2026-05-06 17:08 | 58.56284 | 81.85315 | 32940 ft | 428 kts | 290° |
| 2026-05-06 17:09 | 58.58524 | 81.74759 | 32940 ft | 428 kts | 290° |
| 2026-05-06 17:09 | 58.60759 | 81.64173 | 32943 ft | 428 kts | 290° |
| 2026-05-06 17:10 | 58.62972 | 81.53636 | 32931 ft | 426 kts | 290° |
| 2026-05-06 17:10 | 58.65166 | 81.43135 | 32933 ft | 421 kts | 290° |
| 2026-05-06 17:11 | 58.67314 | 81.32802 | 32928 ft | 415 kts | 290° |
| 2026-05-06 17:11 | 58.69452 | 81.22470 | 32930 ft | 412 kts | 290° |
| 2026-05-06 17:12 | 58.71554 | 81.12270 | 32952 ft | 415 kts | 290° |
| 2026-05-06 17:12 | 58.73707 | 81.01826 | 32911 ft | 423 kts | 291° |
| 2026-05-06 17:13 | 58.75891 | 80.91190 | 32952 ft | 435 kts | 291° |
| 2026-05-06 17:13 | 58.78148 | 80.80193 | 32950 ft | 446 kts | 291° |
| 2026-05-06 17:14 | 58.80448 | 80.68907 | 32950 ft | 456 kts | 291° |
| 2026-05-06 17:14 | 58.82771 | 80.57416 | 32945 ft | 462 kts | 291° |
| 2026-05-06 17:15 | 58.85080 | 80.45919 | 32932 ft | 461 kts | 291° |
| 2026-05-06 17:15 | 58.87397 | 80.34334 | 32933 ft | 460 kts | 290° |
| 2026-05-06 17:16 | 58.89672 | 80.22826 | 32925 ft | 456 kts | 290° |
| 2026-05-06 17:16 | 58.91897 | 80.11431 | 32937 ft | 455 kts | 290° |
| 2026-05-06 17:17 | 58.94121 | 79.99966 | 32937 ft | 453 kts | 290° |
| 2026-05-06 17:17 | 58.96325 | 79.88557 | 32930 ft | 450 kts | 290° |
| 2026-05-06 17:18 | 58.98494 | 79.77271 | 32928 ft | 446 kts | 290° |
| 2026-05-06 17:18 | 59.00632 | 79.66081 | 32927 ft | 440 kts | 290° |
| 2026-05-06 17:19 | 59.02749 | 79.54939 | 32920 ft | 438 kts | 290° |
| 2026-05-06 17:19 | 59.04834 | 79.43901 | 32931 ft | 436 kts | 290° |
| 2026-05-06 17:20 | 59.06910 | 79.32845 | 32933 ft | 434 kts | 289° |
| 2026-05-06 17:20 | 59.08953 | 79.21905 | 32916 ft | 431 kts | 289° |
| 2026-05-06 17:21 | 59.10990 | 79.10932 | 32911 ft | 428 kts | 289° |
| 2026-05-06 17:21 | 59.13003 | 79.00032 | 32924 ft | 426 kts | 289° |
| 2026-05-06 17:22 | 59.14983 | 78.89244 | 32915 ft | 424 kts | 289° |
| 2026-05-06 17:22 | 59.16959 | 78.78418 | 32929 ft | 422 kts | 289° |
| 2026-05-06 17:23 | 59.18912 | 78.67660 | 32907 ft | 419 kts | 289° |
| 2026-05-06 17:23 | 59.20835 | 78.57000 | 32926 ft | 418 kts | 289° |
| 2026-05-06 17:24 | 59.22749 | 78.46332 | 32922 ft | 416 kts | 289° |
| 2026-05-06 17:24 | 59.24660 | 78.35620 | 32918 ft | 416 kts | 289° |
| 2026-05-06 17:25 | 59.26544 | 78.25006 | 32923 ft | 415 kts | 289° |
| 2026-05-06 17:25 | 59.28433 | 78.14297 | 32913 ft | 414 kts | 289° |
| 2026-05-06 17:26 | 59.30292 | 78.03696 | 32916 ft | 413 kts | 288° |
| 2026-05-06 17:26 | 59.32146 | 77.93062 | 32911 ft | 411 kts | 288° |
| 2026-05-06 17:27 | 59.33996 | 77.82393 | 32909 ft | 411 kts | 288° |
| 2026-05-06 17:27 | 59.35818 | 77.71823 | 32910 ft | 410 kts | 288° |
| 2026-05-06 17:28 | 59.37641 | 77.61183 | 32908 ft | 410 kts | 288° |
| 2026-05-06 17:28 | 59.39439 | 77.50631 | 32902 ft | 409 kts | 288° |
| 2026-05-06 17:29 | 59.41235 | 77.40030 | 32908 ft | 408 kts | 288° |
| 2026-05-06 17:29 | 59.43009 | 77.29492 | 32897 ft | 408 kts | 288° |
| 2026-05-06 17:30 | 59.44792 | 77.18848 | 32897 ft | 408 kts | 288° |
| 2026-05-06 17:30 | 59.46550 | 77.08289 | 32901 ft | 408 kts | 288° |
| 2026-05-06 17:31 | 59.48306 | 76.97681 | 32900 ft | 407 kts | 287° |
| 2026-05-06 17:31 | 59.50092 | 76.86916 | 32893 ft | 415 kts | 288° |
| 2026-05-06 17:32 | 59.51869 | 76.76226 | 32880 ft | 411 kts | 288° |
| 2026-05-06 17:32 | 59.53631 | 76.65538 | 32877 ft | 407 kts | 287° |
| 2026-05-06 17:33 | 59.55373 | 76.54914 | 32880 ft | 406 kts | 287° |
| 2026-05-06 17:33 | 59.57093 | 76.44326 | 32875 ft | 408 kts | 287° |
| 2026-05-06 17:34 | 59.58804 | 76.33613 | 32877 ft | 408 kts | 287° |
| 2026-05-06 17:34 | 59.60489 | 76.22986 | 32866 ft | 406 kts | 287° |
| 2026-05-06 17:35 | 59.62172 | 76.12324 | 32874 ft | 406 kts | 287° |
| 2026-05-06 17:35 | 59.63848 | 76.01649 | 32870 ft | 406 kts | 287° |
| 2026-05-06 17:36 | 59.66348 | 75.85604 | 32865 ft | 408 kts | 287° |
| 2026-05-06 17:36 | 59.67992 | 75.74963 | 32868 ft | 407 kts | 286° |
| 2026-05-06 17:37 | 59.69640 | 75.64235 | 32864 ft | 407 kts | 286° |
| 2026-05-06 17:37 | 59.71276 | 75.53520 | 32855 ft | 405 kts | 286° |
| 2026-05-06 17:38 | 59.72912 | 75.42738 | 32859 ft | 409 kts | 286° |
| 2026-05-06 17:38 | 59.74540 | 75.31946 | 32294 ft | 413 kts | 286° |
| 2026-05-06 17:39 | 59.75418 | 75.26499 | 31533 ft | 425 kts | 289° |
| 2026-05-06 17:39 | 59.76474 | 75.20933 | 30893 ft | 434 kts | 290° |
| 2026-05-06 17:39 | 59.77621 | 75.15316 | 30364 ft | 440 kts | 291° |
| 2026-05-06 17:39 | 59.78810 | 75.09668 | 29968 ft | 442 kts | 291° |
| 2026-05-06 17:40 | 59.79994 | 75.04078 | 29854 ft | 444 kts | 291° |
| 2026-05-06 17:40 | 59.81186 | 74.98408 | 29843 ft | 444 kts | 291° |
| 2026-05-06 17:40 | 59.83526 | 74.87071 | 29837 ft | 442 kts | 291° |
| 2026-05-06 17:41 | 59.85818 | 74.75748 | 29837 ft | 443 kts | 290° |
| 2026-05-06 17:41 | 59.88100 | 74.64360 | 29833 ft | 444 kts | 290° |
| 2026-05-06 17:42 | 59.90377 | 74.52946 | 29833 ft | 444 kts | 290° |
| 2026-05-06 17:42 | 59.92654 | 74.41474 | 29830 ft | 444 kts | 290° |
| 2026-05-06 17:43 | 59.94923 | 74.29986 | 29820 ft | 444 kts | 290° |
| 2026-05-06 17:43 | 59.97182 | 74.18482 | 29825 ft | 445 kts | 290° |
| 2026-05-06 17:44 | 59.99416 | 74.07036 | 29817 ft | 445 kts | 290° |
| 2026-05-06 17:44 | 60.01656 | 73.95494 | 29820 ft | 445 kts | 290° |
| 2026-05-06 17:45 | 60.03894 | 73.83896 | 29812 ft | 446 kts | 290° |
| 2026-05-06 17:45 | 60.06105 | 73.72368 | 29811 ft | 446 kts | 289° |
| 2026-05-06 17:46 | 60.08326 | 73.60722 | 29815 ft | 447 kts | 289° |
| 2026-05-06 17:46 | 60.10524 | 73.49123 | 29803 ft | 447 kts | 289° |
| 2026-05-06 17:47 | 60.12360 | 73.39384 | 29807 ft | 447 kts | 289° |
| 2026-05-06 17:47 | 60.14554 | 73.27683 | 29806 ft | 448 kts | 289° |
| 2026-05-06 17:48 | 60.16728 | 73.16016 | 29801 ft | 448 kts | 289° |
| 2026-05-06 17:48 | 60.18904 | 73.04268 | 29803 ft | 448 kts | 289° |
| 2026-05-06 17:49 | 60.21070 | 72.92499 | 29793 ft | 448 kts | 289° |
| 2026-05-06 17:49 | 60.23216 | 72.80770 | 29798 ft | 448 kts | 289° |
| 2026-05-06 17:50 | 60.25363 | 72.68965 | 29789 ft | 448 kts | 289° |
| 2026-05-06 17:50 | 60.27497 | 72.57153 | 29790 ft | 448 kts | 289° |
| 2026-05-06 17:51 | 60.29612 | 72.45374 | 29787 ft | 448 kts | 289° |
| 2026-05-06 17:51 | 60.31730 | 72.33510 | 29783 ft | 449 kts | 289° |
| 2026-05-06 17:52 | 60.33826 | 72.21689 | 29787 ft | 449 kts | 289° |
| 2026-05-06 17:52 | 60.35925 | 72.09780 | 29782 ft | 449 kts | 289° |
| 2026-05-06 17:53 | 60.37999 | 71.97940 | 29779 ft | 449 kts | 289° |
| 2026-05-06 17:53 | 60.40074 | 71.86013 | 29783 ft | 449 kts | 289° |
| 2026-05-06 17:54 | 60.42139 | 71.74074 | 29778 ft | 449 kts | 289° |
| 2026-05-06 17:54 | 60.44179 | 71.62196 | 29779 ft | 449 kts | 289° |
| 2026-05-06 17:55 | 60.46223 | 71.50224 | 29784 ft | 448 kts | 289° |
| 2026-05-06 17:55 | 60.48244 | 71.38306 | 29776 ft | 447 kts | 289° |
| 2026-05-06 17:56 | 60.50261 | 71.26332 | 29777 ft | 447 kts | 289° |
| 2026-05-06 17:56 | 60.52251 | 71.14437 | 29783 ft | 446 kts | 289° |
| 2026-05-06 17:57 | 60.54227 | 71.02551 | 29781 ft | 445 kts | 289° |
| 2026-05-06 17:57 | 60.56204 | 70.90587 | 29777 ft | 445 kts | 289° |
| 2026-05-06 17:58 | 60.58151 | 70.78720 | 29775 ft | 444 kts | 289° |
| 2026-05-06 17:58 | 60.60103 | 70.66754 | 29774 ft | 443 kts | 289° |
| 2026-05-06 17:59 | 60.62032 | 70.54883 | 29769 ft | 443 kts | 289° |
| 2026-05-06 17:59 | 60.64343 | 70.43305 | 29767 ft | 442 kts | 296° |
| 2026-05-06 18:00 | 60.67378 | 70.32478 | 29760 ft | 433 kts | 302° |
| 2026-05-06 18:00 | 60.70803 | 70.22351 | 29777 ft | 437 kts | 304° |
| 2026-05-06 18:01 | 60.74237 | 70.11937 | 29780 ft | 444 kts | 302° |
| 2026-05-06 18:01 | 60.77475 | 70.01279 | 29774 ft | 442 kts | 301° |
| 2026-05-06 18:02 | 60.80690 | 69.90563 | 29765 ft | 441 kts | 301° |
| 2026-05-06 18:02 | 60.83877 | 69.79794 | 29764 ft | 440 kts | 300° |
| 2026-05-06 18:03 | 60.87006 | 69.69092 | 29765 ft | 438 kts | 300° |
| 2026-05-06 18:03 | 60.90140 | 69.58339 | 29772 ft | 437 kts | 300° |
| 2026-05-06 18:04 | 60.93239 | 69.47675 | 29772 ft | 435 kts | 300° |
| 2026-05-06 18:04 | 60.96336 | 69.36967 | 29769 ft | 435 kts | 300° |
| 2026-05-06 18:05 | 60.99422 | 69.26254 | 29777 ft | 434 kts | 300° |
| 2026-05-06 18:05 | 61.02323 | 69.15368 | 29755 ft | 430 kts | 294° |
| 2026-05-06 18:06 | 61.04144 | 69.03900 | 29775 ft | 425 kts | 278° |
| 2026-05-06 18:06 | 61.04390 | 68.91729 | 29776 ft | 420 kts | 275° |
| 2026-05-06 18:07 | 61.05152 | 68.79799 | 29759 ft | 423 kts | 281° |
| 2026-05-06 18:07 | 61.06223 | 68.67708 | 29760 ft | 434 kts | 280° |
| 2026-05-06 18:08 | 61.07112 | 68.55385 | 29750 ft | 435 kts | 278° |
| 2026-05-06 18:08 | 61.07878 | 68.42960 | 29750 ft | 434 kts | 278° |
| 2026-05-06 18:09 | 61.08634 | 68.30631 | 29747 ft | 433 kts | 278° |
| 2026-05-06 18:09 | 61.09398 | 68.18282 | 29743 ft | 433 kts | 278° |
| 2026-05-06 18:10 | 61.10137 | 68.05917 | 29740 ft | 433 kts | 278° |
| 2026-05-06 18:10 | 61.10855 | 67.93615 | 29744 ft | 433 kts | 277° |
| 2026-05-06 18:11 | 61.11566 | 67.81223 | 29737 ft | 433 kts | 277° |
| 2026-05-06 18:11 | 61.12269 | 67.68841 | 29729 ft | 433 kts | 277° |
| 2026-05-06 18:12 | 61.12956 | 67.56544 | 29733 ft | 433 kts | 277° |
| 2026-05-06 18:12 | 61.13638 | 67.44117 | 29737 ft | 433 kts | 277° |
| 2026-05-06 18:13 | 61.14307 | 67.31712 | 29727 ft | 433 kts | 277° |
| 2026-05-06 18:13 | 61.14962 | 67.19366 | 29723 ft | 433 kts | 277° |
| 2026-05-06 18:14 | 61.15609 | 67.06941 | 29723 ft | 433 kts | 276° |
| 2026-05-06 18:14 | 61.16239 | 66.94615 | 29719 ft | 432 kts | 276° |
| 2026-05-06 18:15 | 61.16863 | 66.82194 | 29718 ft | 432 kts | 276° |
| 2026-05-06 18:15 | 61.17474 | 66.69789 | 29715 ft | 432 kts | 276° |
| 2026-05-06 18:16 | 61.18070 | 66.57461 | 29723 ft | 432 kts | 276° |
| 2026-05-06 18:16 | 61.18658 | 66.45051 | 29714 ft | 432 kts | 276° |
| 2026-05-06 18:17 | 61.19235 | 66.32643 | 29719 ft | 432 kts | 276° |
| 2026-05-06 18:17 | 61.19797 | 66.20294 | 29713 ft | 432 kts | 276° |
| 2026-05-06 18:18 | 61.20352 | 66.07865 | 29714 ft | 431 kts | 275° |
| 2026-05-06 18:18 | 61.20892 | 65.95507 | 29710 ft | 432 kts | 275° |
| 2026-05-06 18:19 | 61.21424 | 65.83073 | 29705 ft | 432 kts | 275° |
| 2026-05-06 18:19 | 61.21944 | 65.70643 | 29705 ft | 432 kts | 275° |
| 2026-05-06 18:20 | 61.22451 | 65.58262 | 29701 ft | 433 kts | 275° |
| 2026-05-06 18:20 | 61.22949 | 65.45795 | 29701 ft | 433 kts | 275° |
| 2026-05-06 18:21 | 61.23436 | 65.33324 | 29697 ft | 433 kts | 275° |
| 2026-05-06 18:21 | 61.23911 | 65.20860 | 29702 ft | 433 kts | 275° |
| 2026-05-06 18:22 | 61.24375 | 65.08393 | 29699 ft | 434 kts | 274° |
| 2026-05-06 18:22 | 61.24827 | 64.95952 | 29696 ft | 434 kts | 274° |
| 2026-05-06 18:23 | 61.25269 | 64.83428 | 29696 ft | 433 kts | 274° |
| 2026-05-06 18:23 | 61.25699 | 64.70925 | 29694 ft | 433 kts | 274° |
| 2026-05-06 18:24 | 61.26118 | 64.58490 | 29688 ft | 433 kts | 274° |
| 2026-05-06 18:24 | 61.26530 | 64.45993 | 29689 ft | 433 kts | 274° |
| 2026-05-06 18:25 | 61.26945 | 64.33525 | 29687 ft | 433 kts | 274° |
| 2026-05-06 18:25 | 61.27354 | 64.21000 | 29685 ft | 433 kts | 274° |
| 2026-05-06 18:26 | 61.27747 | 64.08577 | 29687 ft | 433 kts | 274° |
| 2026-05-06 18:26 | 61.28129 | 63.96044 | 29689 ft | 433 kts | 274° |
| 2026-05-06 18:27 | 61.28498 | 63.83614 | 29688 ft | 433 kts | 274° |
| 2026-05-06 18:27 | 61.28860 | 63.71072 | 29685 ft | 433 kts | 273° |
| 2026-05-06 18:28 | 61.29426 | 63.58635 | 29682 ft | 434 kts | 278° |
| 2026-05-06 18:28 | 61.30499 | 63.46256 | 29692 ft | 434 kts | 280° |
| 2026-05-06 18:29 | 61.31653 | 63.33888 | 29689 ft | 434 kts | 279° |
| 2026-05-06 18:29 | 61.32712 | 63.21558 | 29685 ft | 434 kts | 279° |
| 2026-05-06 18:30 | 61.33718 | 63.09100 | 29689 ft | 434 kts | 278° |
| 2026-05-06 18:30 | 61.34698 | 62.96747 | 29682 ft | 434 kts | 278° |
| 2026-05-06 18:31 | 61.35680 | 62.84318 | 29687 ft | 434 kts | 278° |
| 2026-05-06 18:31 | 61.36652 | 62.71919 | 29685 ft | 434 kts | 278° |
| 2026-05-06 18:32 | 61.37454 | 62.61573 | 29687 ft | 434 kts | 278° |
| 2026-05-06 18:32 | 61.38415 | 62.49096 | 29672 ft | 435 kts | 278° |
| 2026-05-06 18:33 | 61.39362 | 62.36687 | 29685 ft | 435 kts | 278° |
| 2026-05-06 18:33 | 61.40297 | 62.24280 | 29682 ft | 435 kts | 278° |
| 2026-05-06 18:34 | 61.41227 | 62.11765 | 29668 ft | 435 kts | 277° |
| 2026-05-06 18:34 | 61.42138 | 61.99353 | 29682 ft | 434 kts | 277° |
| 2026-05-06 18:35 | 61.43044 | 61.86833 | 29678 ft | 434 kts | 277° |
| 2026-05-06 18:35 | 61.43936 | 61.74350 | 29673 ft | 433 kts | 277° |
| 2026-05-06 18:36 | 61.44808 | 61.61982 | 29669 ft | 433 kts | 277° |
| 2026-05-06 18:36 | 61.45673 | 61.49542 | 29666 ft | 432 kts | 277° |
| 2026-05-06 18:37 | 61.46529 | 61.37062 | 29669 ft | 432 kts | 276° |
| 2026-05-06 18:37 | 61.47370 | 61.24651 | 29664 ft | 431 kts | 276° |
| 2026-05-06 18:38 | 61.48202 | 61.12210 | 29666 ft | 431 kts | 276° |
| 2026-05-06 18:38 | 61.49029 | 60.99767 | 29661 ft | 431 kts | 276° |
| 2026-05-06 18:39 | 61.49839 | 60.87419 | 29669 ft | 431 kts | 276° |
| 2026-05-06 18:40 | 61.51041 | 60.68772 | 29657 ft | 430 kts | 276° |
| 2026-05-06 18:40 | 61.51827 | 60.56331 | 29653 ft | 430 kts | 276° |
| 2026-05-06 18:41 | 61.52596 | 60.43977 | 29661 ft | 429 kts | 275° |
| 2026-05-06 18:41 | 61.53357 | 60.31576 | 29661 ft | 429 kts | 275° |
| 2026-05-06 18:42 | 61.54109 | 60.19122 | 29654 ft | 429 kts | 275° |
| 2026-05-06 18:42 | 61.54846 | 60.06759 | 29660 ft | 428 kts | 275° |
| 2026-05-06 18:43 | 61.55576 | 59.94308 | 29649 ft | 428 kts | 275° |
| 2026-05-06 18:43 | 61.56289 | 59.82000 | 29644 ft | 427 kts | 275° |
| 2026-05-06 18:44 | 61.56999 | 59.69565 | 29671 ft | 427 kts | 275° |
| 2026-05-06 18:44 | 61.57694 | 59.57221 | 29656 ft | 428 kts | 275° |
| 2026-05-06 18:45 | 61.58382 | 59.44800 | 29653 ft | 428 kts | 275° |
| 2026-05-06 18:45 | 61.59057 | 59.32383 | 29660 ft | 428 kts | 274° |
| 2026-05-06 18:46 | 61.59716 | 59.20048 | 29655 ft | 427 kts | 274° |
| 2026-05-06 18:46 | 61.60368 | 59.07623 | 29653 ft | 426 kts | 274° |
| 2026-05-06 18:47 | 61.61004 | 58.95305 | 29645 ft | 425 kts | 274° |
| 2026-05-06 18:47 | 61.61630 | 58.82950 | 29659 ft | 424 kts | 274° |
| 2026-05-06 18:48 | 61.62243 | 58.70607 | 29642 ft | 423 kts | 274° |
| 2026-05-06 18:48 | 61.62845 | 58.58307 | 29650 ft | 422 kts | 273° |
| 2026-05-06 18:49 | 61.63432 | 58.46093 | 29635 ft | 421 kts | 273° |
| 2026-05-06 18:49 | 61.64071 | 58.33812 | 29638 ft | 421 kts | 274° |
| 2026-05-06 18:50 | 61.64739 | 58.21643 | 29631 ft | 421 kts | 274° |
| 2026-05-06 18:50 | 61.65399 | 58.09382 | 29641 ft | 421 kts | 273° |
| 2026-05-06 18:51 | 61.66040 | 57.97122 | 29635 ft | 421 kts | 273° |
| 2026-05-06 18:51 | 61.66662 | 57.84903 | 29631 ft | 421 kts | 273° |
| 2026-05-06 18:52 | 61.67275 | 57.72629 | 29628 ft | 422 kts | 273° |
| 2026-05-06 18:52 | 61.67880 | 57.60288 | 29629 ft | 422 kts | 272° |
| 2026-05-06 18:53 | 61.68470 | 57.48051 | 29624 ft | 422 kts | 272° |
| 2026-05-06 18:53 | 61.69055 | 57.35676 | 29640 ft | 422 kts | 272° |
| 2026-05-06 18:54 | 61.69623 | 57.23421 | 29637 ft | 423 kts | 272° |
| 2026-05-06 18:54 | 61.70186 | 57.11020 | 29637 ft | 423 kts | 272° |
| 2026-05-06 18:55 | 61.70733 | 56.98732 | 29633 ft | 423 kts | 272° |
| 2026-05-06 18:55 | 61.71273 | 56.86341 | 29652 ft | 423 kts | 271° |
| 2026-05-06 18:56 | 61.71801 | 56.73973 | 29648 ft | 423 kts | 271° |
| 2026-05-06 18:56 | 61.72316 | 56.61643 | 29643 ft | 424 kts | 271° |
| 2026-05-06 18:57 | 61.72822 | 56.49273 | 29643 ft | 424 kts | 271° |
| 2026-05-06 18:57 | 61.73317 | 56.36859 | 29642 ft | 424 kts | 271° |
| 2026-05-06 18:58 | 61.73800 | 56.24495 | 29649 ft | 425 kts | 271° |
| 2026-05-06 18:58 | 61.74275 | 56.12015 | 29652 ft | 425 kts | 270° |
| 2026-05-06 18:59 | 61.74735 | 55.99628 | 29652 ft | 425 kts | 270° |
| 2026-05-06 18:59 | 61.75189 | 55.87127 | 29656 ft | 426 kts | 270° |
| 2026-05-06 19:00 | 61.75629 | 55.74701 | 29655 ft | 426 kts | 270° |
| 2026-05-06 19:00 | 61.76059 | 55.62173 | 29655 ft | 427 kts | 270° |
| 2026-05-06 19:01 | 61.76477 | 55.49706 | 29662 ft | 427 kts | 270° |
| 2026-05-06 19:01 | 61.76887 | 55.37140 | 29668 ft | 428 kts | 270° |
| 2026-05-06 19:02 | 61.77285 | 55.24562 | 29681 ft | 429 kts | 270° |
| 2026-05-06 19:02 | 61.77671 | 55.12014 | 29675 ft | 430 kts | 270° |
| 2026-05-06 19:03 | 61.78049 | 54.99383 | 29683 ft | 430 kts | 270° |
| 2026-05-06 19:03 | 61.78415 | 54.86760 | 29685 ft | 430 kts | 270° |
| 2026-05-06 19:04 | 61.78769 | 54.74188 | 29690 ft | 430 kts | 270° |
| 2026-05-06 19:04 | 61.79130 | 54.61520 | 29699 ft | 431 kts | 270° |
| 2026-05-06 19:05 | 61.79499 | 54.48939 | 29702 ft | 431 kts | 270° |
| 2026-05-06 19:05 | 61.79860 | 54.36269 | 29711 ft | 431 kts | 270° |
| 2026-05-06 19:06 | 61.80205 | 54.23609 | 29710 ft | 430 kts | 270° |
| 2026-05-06 19:06 | 61.80535 | 54.11023 | 29730 ft | 429 kts | 270° |
| 2026-05-06 19:07 | 61.80852 | 53.98458 | 29718 ft | 429 kts | 270° |
| 2026-05-06 19:07 | 61.81159 | 53.85878 | 29733 ft | 428 kts | 269° |
| 2026-05-06 19:08 | 61.81454 | 53.73275 | 29735 ft | 428 kts | 269° |
| 2026-05-06 19:08 | 61.81736 | 53.60762 | 29735 ft | 427 kts | 269° |
| 2026-05-06 19:09 | 61.82011 | 53.48148 | 29743 ft | 427 kts | 269° |
| 2026-05-06 19:09 | 61.82270 | 53.35642 | 29748 ft | 427 kts | 269° |
| 2026-05-06 19:10 | 61.82516 | 53.23093 | 29746 ft | 427 kts | 269° |
| 2026-05-06 19:10 | 61.82752 | 53.10531 | 29747 ft | 426 kts | 269° |
| 2026-05-06 19:11 | 61.82977 | 52.98078 | 29758 ft | 424 kts | 269° |
| 2026-05-06 19:11 | 61.83190 | 52.85566 | 29753 ft | 424 kts | 269° |
| 2026-05-06 19:12 | 61.83391 | 52.73107 | 29765 ft | 426 kts | 269° |
| 2026-05-06 19:12 | 61.83584 | 52.60531 | 29760 ft | 427 kts | 269° |
| 2026-05-06 19:13 | 61.83764 | 52.48035 | 29753 ft | 426 kts | 269° |
| 2026-05-06 19:13 | 61.83935 | 52.35456 | 29760 ft | 426 kts | 269° |
| 2026-05-06 19:14 | 61.84065 | 52.23088 | 29752 ft | 415 kts | 268° |
| 2026-05-06 19:14 | 61.84107 | 52.10971 | 29749 ft | 407 kts | 268° |
| 2026-05-06 19:15 | 61.84133 | 51.99068 | 29759 ft | 401 kts | 268° |
| 2026-05-06 19:15 | 61.84162 | 51.87392 | 29764 ft | 397 kts | 268° |
| 2026-05-06 19:16 | 61.84187 | 51.75657 | 29764 ft | 397 kts | 268° |
| 2026-05-06 19:16 | 61.84201 | 51.64064 | 29756 ft | 394 kts | 268° |
| 2026-05-06 19:17 | 61.84197 | 51.52491 | 29761 ft | 390 kts | 268° |
| 2026-05-06 19:17 | 61.84180 | 51.41059 | 29770 ft | 390 kts | 268° |
| 2026-05-06 19:18 | 61.84154 | 51.29508 | 29768 ft | 393 kts | 268° |
| 2026-05-06 19:18 | 61.84127 | 51.19847 | 29769 ft | 393 kts | 268° |
| 2026-05-06 19:19 | 61.84086 | 51.08258 | 29772 ft | 393 kts | 268° |
| 2026-05-06 19:19 | 61.84035 | 50.96744 | 29775 ft | 394 kts | 268° |
| 2026-05-06 19:20 | 61.83973 | 50.85053 | 29782 ft | 397 kts | 268° |
| 2026-05-06 19:20 | 61.83904 | 50.73503 | 29774 ft | 394 kts | 268° |
| 2026-05-06 19:21 | 61.83823 | 50.61849 | 29770 ft | 394 kts | 268° |
| 2026-05-06 19:21 | 61.83733 | 50.50289 | 29776 ft | 394 kts | 268° |
| 2026-05-06 19:22 | 61.83633 | 50.38685 | 29775 ft | 392 kts | 268° |
| 2026-05-06 19:22 | 61.83524 | 50.27181 | 29784 ft | 391 kts | 268° |
| 2026-05-06 19:23 | 61.83405 | 50.15632 | 29793 ft | 393 kts | 268° |
| 2026-05-06 19:23 | 61.83278 | 50.04173 | 29798 ft | 391 kts | 268° |
| 2026-05-06 19:24 | 61.83140 | 49.92634 | 29798 ft | 392 kts | 268° |
| 2026-05-06 19:24 | 61.82995 | 49.81086 | 29793 ft | 391 kts | 268° |
| 2026-05-06 19:25 | 61.82861 | 49.69583 | 29815 ft | 399 kts | 269° |
| 2026-05-06 19:25 | 61.82846 | 49.57616 | 29811 ft | 412 kts | 269° |
| 2026-05-06 19:26 | 61.82833 | 49.45343 | 29803 ft | 417 kts | 269° |
| 2026-05-06 19:26 | 61.82770 | 49.33192 | 29799 ft | 407 kts | 269° |
| 2026-05-06 19:27 | 61.82617 | 49.21355 | 29806 ft | 398 kts | 268° |
| 2026-05-06 19:27 | 61.82439 | 49.09518 | 29829 ft | 406 kts | 268° |
| 2026-05-06 19:28 | 61.82261 | 48.97580 | 29829 ft | 409 kts | 269° |
| 2026-05-06 19:28 | 61.82078 | 48.85550 | 29826 ft | 406 kts | 269° |
| 2026-05-06 19:29 | 61.81888 | 48.73684 | 29833 ft | 405 kts | 269° |
| 2026-05-06 19:29 | 61.81686 | 48.61700 | 29836 ft | 406 kts | 269° |
| 2026-05-06 19:30 | 61.81475 | 48.49792 | 29843 ft | 406 kts | 269° |
| 2026-05-06 19:30 | 61.81253 | 48.37859 | 29843 ft | 404 kts | 269° |
| 2026-05-06 19:31 | 61.81022 | 48.26011 | 29846 ft | 404 kts | 269° |
| 2026-05-06 19:31 | 61.80657 | 48.08270 | 29856 ft | 404 kts | 269° |
| 2026-05-06 19:32 | 61.80401 | 47.96442 | 29865 ft | 402 kts | 269° |
| 2026-05-06 19:32 | 61.80134 | 47.84571 | 29859 ft | 401 kts | 269° |
| 2026-05-06 19:33 | 61.79860 | 47.72831 | 29861 ft | 402 kts | 269° |
| 2026-05-06 19:33 | 61.79575 | 47.61057 | 29861 ft | 400 kts | 269° |
| 2026-05-06 19:34 | 61.79281 | 47.49249 | 29860 ft | 398 kts | 269° |
| 2026-05-06 19:34 | 61.78980 | 47.37600 | 29873 ft | 400 kts | 269° |
| 2026-05-06 19:35 | 61.78693 | 47.25766 | 29868 ft | 402 kts | 269° |
| 2026-05-06 19:35 | 61.78409 | 47.14089 | 29858 ft | 394 kts | 269° |
| 2026-05-06 19:36 | 61.78088 | 47.02697 | 29861 ft | 383 kts | 268° |
| 2026-05-06 19:36 | 61.77700 | 46.91572 | 29870 ft | 375 kts | 268° |
| 2026-05-06 19:37 | 61.77307 | 46.80634 | 29876 ft | 376 kts | 268° |
| 2026-05-06 19:37 | 61.76912 | 46.69589 | 29875 ft | 376 kts | 268° |
| 2026-05-06 19:38 | 61.76513 | 46.58590 | 29872 ft | 374 kts | 268° |
| 2026-05-06 19:38 | 61.76109 | 46.47712 | 29870 ft | 373 kts | 268° |
| 2026-05-06 19:39 | 61.75695 | 46.36774 | 29873 ft | 371 kts | 268° |
| 2026-05-06 19:39 | 61.75277 | 46.25957 | 29879 ft | 369 kts | 268° |
| 2026-05-06 19:40 | 61.74855 | 46.15281 | 29869 ft | 365 kts | 268° |
| 2026-05-06 19:40 | 61.74425 | 46.04607 | 29878 ft | 362 kts | 268° |
| 2026-05-06 19:41 | 61.73991 | 45.94025 | 29874 ft | 360 kts | 268° |
| 2026-05-06 19:41 | 61.73554 | 45.83562 | 29876 ft | 358 kts | 268° |
| 2026-05-06 19:42 | 61.73109 | 45.73123 | 29882 ft | 355 kts | 268° |
| 2026-05-06 19:42 | 61.72660 | 45.62769 | 29881 ft | 352 kts | 268° |
| 2026-05-06 19:43 | 61.72210 | 45.52572 | 29887 ft | 349 kts | 268° |
| 2026-05-06 19:43 | 61.71754 | 45.42395 | 29884 ft | 348 kts | 268° |
| 2026-05-06 19:44 | 61.71292 | 45.32261 | 29900 ft | 346 kts | 268° |
| 2026-05-06 19:44 | 61.70825 | 45.22151 | 29900 ft | 344 kts | 268° |
| 2026-05-06 19:45 | 61.70354 | 45.12120 | 29895 ft | 344 kts | 267° |
| 2026-05-06 19:45 | 61.69881 | 45.02151 | 29895 ft | 344 kts | 267° |
| 2026-05-06 19:46 | 61.69415 | 44.92110 | 29894 ft | 343 kts | 267° |
| 2026-05-06 19:46 | 61.68950 | 44.82165 | 29898 ft | 341 kts | 267° |
| 2026-05-06 19:47 | 61.68474 | 44.72163 | 29898 ft | 341 kts | 267° |
| 2026-05-06 19:47 | 61.67996 | 44.62299 | 29902 ft | 340 kts | 267° |
| 2026-05-06 19:48 | 61.67510 | 44.52403 | 29902 ft | 338 kts | 267° |
| 2026-05-06 19:48 | 61.67020 | 44.42597 | 29909 ft | 338 kts | 267° |
| 2026-05-06 19:49 | 61.66520 | 44.32713 | 29908 ft | 337 kts | 267° |
| 2026-05-06 19:49 | 61.66018 | 44.22940 | 29908 ft | 337 kts | 266° |
| 2026-05-06 19:50 | 61.65506 | 44.13125 | 29912 ft | 336 kts | 266° |
| 2026-05-06 19:50 | 61.64992 | 44.03401 | 29914 ft | 336 kts | 266° |
| 2026-05-06 19:51 | 61.64470 | 43.93643 | 29915 ft | 336 kts | 266° |
| 2026-05-06 19:51 | 61.63938 | 43.83861 | 29916 ft | 336 kts | 266° |
| 2026-05-06 19:52 | 61.63404 | 43.74148 | 29920 ft | 336 kts | 266° |
| 2026-05-06 19:52 | 61.62858 | 43.64368 | 29923 ft | 336 kts | 266° |
| 2026-05-06 19:53 | 61.62310 | 43.54671 | 29920 ft | 336 kts | 266° |
| 2026-05-06 19:53 | 61.61752 | 43.44908 | 29923 ft | 336 kts | 266° |
| 2026-05-06 19:54 | 61.61185 | 43.35132 | 29927 ft | 336 kts | 266° |
| 2026-05-06 19:54 | 61.60616 | 43.25438 | 29927 ft | 336 kts | 265° |
| 2026-05-06 19:55 | 61.60037 | 43.15693 | 29939 ft | 336 kts | 265° |
| 2026-05-06 19:55 | 61.59450 | 43.05927 | 29930 ft | 337 kts | 265° |
| 2026-05-06 19:56 | 61.58858 | 42.96202 | 29930 ft | 338 kts | 265° |
| 2026-05-06 19:56 | 61.58253 | 42.86398 | 29929 ft | 338 kts | 265° |
| 2026-05-06 19:57 | 61.57645 | 42.76620 | 29937 ft | 338 kts | 265° |
| 2026-05-06 19:57 | 61.57029 | 42.66867 | 29936 ft | 338 kts | 265° |
| 2026-05-06 19:58 | 61.56401 | 42.57025 | 29944 ft | 339 kts | 265° |
| 2026-05-06 19:58 | 61.55772 | 42.47265 | 29939 ft | 338 kts | 265° |
| 2026-05-06 19:59 | 61.55136 | 42.37501 | 29943 ft | 339 kts | 265° |
| 2026-05-06 19:59 | 61.54491 | 42.27680 | 29944 ft | 340 kts | 265° |
| 2026-05-06 20:00 | 61.53854 | 42.17891 | 29948 ft | 340 kts | 265° |
| 2026-05-06 20:00 | 61.53209 | 42.08038 | 29948 ft | 340 kts | 265° |
| 2026-05-06 20:01 | 61.52561 | 41.98263 | 29948 ft | 340 kts | 265° |
| 2026-05-06 20:01 | 61.51900 | 41.88399 | 29956 ft | 340 kts | 264° |
| 2026-05-06 20:02 | 61.51233 | 41.78574 | 29959 ft | 340 kts | 264° |
| 2026-05-06 20:02 | 61.50563 | 41.68803 | 29960 ft | 341 kts | 264° |
| 2026-05-06 20:03 | 61.49881 | 41.58970 | 29961 ft | 341 kts | 264° |
| 2026-05-06 20:03 | 61.49195 | 41.49182 | 29963 ft | 341 kts | 264° |
| 2026-05-06 20:04 | 61.48498 | 41.39346 | 29968 ft | 341 kts | 264° |
| 2026-05-06 20:04 | 61.47795 | 41.29518 | 29965 ft | 341 kts | 264° |
| 2026-05-06 20:05 | 61.47083 | 41.19673 | 29962 ft | 342 kts | 264° |
| 2026-05-06 20:05 | 61.46368 | 41.09883 | 29965 ft | 342 kts | 264° |
| 2026-05-06 20:06 | 61.45641 | 41.00027 | 29965 ft | 342 kts | 264° |
| 2026-05-06 20:06 | 61.44909 | 40.90215 | 29965 ft | 343 kts | 264° |
| 2026-05-06 20:07 | 61.44290 | 40.81995 | 29971 ft | 343 kts | 264° |
| 2026-05-06 20:07 | 61.43540 | 40.72127 | 29966 ft | 344 kts | 263° |
| 2026-05-06 20:08 | 61.42786 | 40.62301 | 29974 ft | 344 kts | 263° |
| 2026-05-06 20:08 | 61.42019 | 40.52409 | 29968 ft | 344 kts | 263° |
| 2026-05-06 20:09 | 61.41248 | 40.42565 | 29974 ft | 345 kts | 263° |
| 2026-05-06 20:09 | 61.40467 | 40.32669 | 29981 ft | 345 kts | 263° |
| 2026-05-06 20:10 | 61.39681 | 40.22809 | 29980 ft | 345 kts | 263° |
| 2026-05-06 20:10 | 61.38881 | 40.12893 | 29984 ft | 346 kts | 263° |
| 2026-05-06 20:11 | 61.38076 | 40.02987 | 29991 ft | 346 kts | 263° |
| 2026-05-06 20:11 | 61.37267 | 39.93129 | 29989 ft | 346 kts | 263° |
| 2026-05-06 20:12 | 61.36446 | 39.83223 | 29986 ft | 346 kts | 263° |
| 2026-05-06 20:12 | 61.35622 | 39.73371 | 29988 ft | 346 kts | 262° |
| 2026-05-06 20:13 | 61.34791 | 39.63517 | 29987 ft | 346 kts | 262° |
| 2026-05-06 20:13 | 61.33948 | 39.53622 | 29986 ft | 346 kts | 262° |
| 2026-05-06 20:14 | 61.33098 | 39.43728 | 29986 ft | 347 kts | 262° |
| 2026-05-06 20:14 | 61.32245 | 39.33893 | 29993 ft | 347 kts | 262° |
| 2026-05-06 20:15 | 61.31382 | 39.24010 | 29990 ft | 347 kts | 262° |
| 2026-05-06 20:15 | 61.30509 | 39.14110 | 29991 ft | 347 kts | 262° |
| 2026-05-06 20:16 | 61.29633 | 39.04246 | 29995 ft | 348 kts | 262° |
| 2026-05-06 20:16 | 61.28740 | 38.94304 | 29991 ft | 348 kts | 261° |
| 2026-05-06 20:17 | 61.27849 | 38.84466 | 29998 ft | 348 kts | 261° |
| 2026-05-06 20:17 | 61.26948 | 38.74579 | 29995 ft | 348 kts | 261° |
| 2026-05-06 20:18 | 61.26043 | 38.64729 | 29998 ft | 348 kts | 261° |
| 2026-05-06 20:18 | 61.25128 | 38.54831 | 29996 ft | 348 kts | 261° |
| 2026-05-06 20:19 | 61.24210 | 38.45007 | 29997 ft | 348 kts | 261° |
| 2026-05-06 20:19 | 61.23179 | 38.35085 | 30017 ft | 358 kts | 258° |
| 2026-05-06 20:20 | 61.21922 | 38.24832 | 30013 ft | 376 kts | 258° |
| 2026-05-06 20:20 | 61.20601 | 38.14098 | 30015 ft | 391 kts | 258° |
| 2026-05-06 20:21 | 61.19249 | 38.03044 | 30005 ft | 394 kts | 258° |
| 2026-05-06 20:21 | 61.17904 | 37.92084 | 30002 ft | 389 kts | 258° |
| 2026-05-06 20:22 | 61.16579 | 37.81344 | 30013 ft | 385 kts | 257° |
| 2026-05-06 20:22 | 61.15250 | 37.70641 | 30005 ft | 381 kts | 257° |
| 2026-05-06 20:23 | 61.13924 | 37.60032 | 29998 ft | 378 kts | 257° |
| 2026-05-06 20:23 | 61.12616 | 37.49648 | 30002 ft | 373 kts | 257° |
| 2026-05-06 20:24 | 61.11302 | 37.39281 | 30012 ft | 369 kts | 257° |
| 2026-05-06 20:24 | 61.09996 | 37.29046 | 30000 ft | 369 kts | 257° |
| 2026-05-06 20:25 | 61.08684 | 37.18832 | 30003 ft | 366 kts | 257° |
| 2026-05-06 20:25 | 61.07372 | 37.08685 | 30017 ft | 364 kts | 257° |
| 2026-05-06 20:26 | 61.06064 | 36.98643 | 30016 ft | 363 kts | 256° |
| 2026-05-06 20:26 | 61.04749 | 36.88601 | 30008 ft | 362 kts | 256° |
| 2026-05-06 20:27 | 61.03427 | 36.78578 | 30012 ft | 361 kts | 256° |
| 2026-05-06 20:27 | 61.02106 | 36.68627 | 30017 ft | 361 kts | 256° |
| 2026-05-06 20:28 | 61.00775 | 36.58653 | 30035 ft | 360 kts | 256° |
| 2026-05-06 20:28 | 60.99444 | 36.48737 | 30017 ft | 360 kts | 256° |
| 2026-05-06 20:29 | 60.98237 | 36.38543 | 30038 ft | 374 kts | 260° |
| 2026-05-06 20:29 | 60.97676 | 36.27621 | 30036 ft | 392 kts | 267° |
| 2026-05-06 20:30 | 60.97912 | 36.10401 | 30022 ft | 411 kts | 271° |
| 2026-05-06 20:31 | 60.98232 | 35.98708 | 30007 ft | 409 kts | 270° |
| 2026-05-06 20:31 | 60.98415 | 35.87010 | 30014 ft | 407 kts | 269° |
| 2026-05-06 20:32 | 60.98523 | 35.75322 | 30037 ft | 407 kts | 269° |
| 2026-05-06 20:32 | 60.98624 | 35.63704 | 30019 ft | 408 kts | 269° |
| 2026-05-06 20:33 | 60.98722 | 35.52007 | 30017 ft | 409 kts | 269° |
| 2026-05-06 20:33 | 60.98805 | 35.40317 | 30032 ft | 410 kts | 268° |
| 2026-05-06 20:34 | 60.98875 | 35.28530 | 30026 ft | 410 kts | 268° |
| 2026-05-06 20:34 | 60.98937 | 35.16744 | 30016 ft | 411 kts | 268° |
| 2026-05-06 20:35 | 60.98990 | 35.05028 | 30022 ft | 411 kts | 268° |
| 2026-05-06 20:35 | 60.99032 | 34.93270 | 30021 ft | 411 kts | 268° |
| 2026-05-06 20:36 | 60.99064 | 34.81470 | 30019 ft | 411 kts | 268° |
| 2026-05-06 20:36 | 60.99086 | 34.69674 | 30024 ft | 411 kts | 268° |
| 2026-05-06 20:37 | 60.99099 | 34.57885 | 30015 ft | 411 kts | 268° |
| 2026-05-06 20:37 | 60.99101 | 34.46133 | 30021 ft | 411 kts | 267° |
| 2026-05-06 20:38 | 60.99099 | 34.34331 | 30013 ft | 412 kts | 267° |
| 2026-05-06 20:38 | 60.99091 | 34.22588 | 30018 ft | 412 kts | 267° |
| 2026-05-06 20:39 | 60.99074 | 34.10765 | 30018 ft | 412 kts | 267° |
| 2026-05-06 20:39 | 60.99046 | 33.99004 | 30023 ft | 412 kts | 267° |
| 2026-05-06 20:40 | 60.99005 | 33.87125 | 30021 ft | 413 kts | 267° |
| 2026-05-06 20:40 | 60.98955 | 33.75354 | 30020 ft | 413 kts | 266° |
| 2026-05-06 20:41 | 60.98895 | 33.63484 | 30030 ft | 413 kts | 266° |
| 2026-05-06 20:41 | 60.98825 | 33.51702 | 30029 ft | 413 kts | 266° |
| 2026-05-06 20:42 | 60.98744 | 33.39829 | 30028 ft | 414 kts | 266° |
| 2026-05-06 20:42 | 60.98653 | 33.27957 | 30031 ft | 414 kts | 266° |
| 2026-05-06 20:43 | 60.98551 | 33.16170 | 30026 ft | 414 kts | 266° |
| 2026-05-06 20:43 | 60.98440 | 33.04325 | 30035 ft | 414 kts | 266° |
| 2026-05-06 20:44 | 60.98316 | 32.92424 | 30032 ft | 414 kts | 266° |
| 2026-05-06 20:44 | 60.98184 | 32.80613 | 30033 ft | 414 kts | 265° |
| 2026-05-06 20:45 | 60.98042 | 32.68696 | 30028 ft | 414 kts | 265° |
| 2026-05-06 20:45 | 60.97889 | 32.56874 | 30030 ft | 415 kts | 265° |
| 2026-05-06 20:46 | 60.97734 | 32.44987 | 30035 ft | 415 kts | 265° |
| 2026-05-06 20:46 | 60.97576 | 32.33165 | 30025 ft | 415 kts | 265° |
| 2026-05-06 20:47 | 60.97405 | 32.21248 | 30025 ft | 415 kts | 265° |
| 2026-05-06 20:47 | 60.97226 | 32.09417 | 30029 ft | 416 kts | 265° |
| 2026-05-06 20:48 | 60.97033 | 31.97503 | 30025 ft | 416 kts | 265° |
| 2026-05-06 20:48 | 60.96819 | 31.85626 | 30031 ft | 416 kts | 264° |
| 2026-05-06 20:49 | 60.96597 | 31.73691 | 30025 ft | 416 kts | 264° |
| 2026-05-06 20:49 | 60.96365 | 31.61767 | 30033 ft | 416 kts | 264° |
| 2026-05-06 20:50 | 60.96115 | 31.49941 | 30024 ft | 416 kts | 264° |
| 2026-05-06 20:50 | 60.95851 | 31.38012 | 30026 ft | 416 kts | 264° |
| 2026-05-06 20:51 | 60.95579 | 31.26155 | 30025 ft | 416 kts | 264° |
| 2026-05-06 20:51 | 60.95295 | 31.14220 | 30026 ft | 417 kts | 264° |
| 2026-05-06 20:52 | 60.95002 | 31.02294 | 30022 ft | 417 kts | 264° |
| 2026-05-06 20:52 | 60.94700 | 30.90431 | 30025 ft | 417 kts | 263° |
| 2026-05-06 20:53 | 60.94385 | 30.78480 | 30027 ft | 418 kts | 263° |
| 2026-05-06 20:53 | 60.94061 | 30.66507 | 30026 ft | 418 kts | 263° |
| 2026-05-06 20:54 | 60.93728 | 30.54621 | 30028 ft | 418 kts | 263° |
| 2026-05-06 20:54 | 60.93393 | 30.42681 | 30026 ft | 419 kts | 263° |
| 2026-05-06 20:55 | 60.93050 | 30.30755 | 30031 ft | 419 kts | 263° |
| 2026-05-06 20:55 | 60.92754 | 30.20772 | 30024 ft | 419 kts | 263° |
| 2026-05-06 20:56 | 60.92390 | 30.08826 | 30032 ft | 420 kts | 263° |
| 2026-05-06 20:56 | 60.91950 | 29.94863 | 30030 ft | 420 kts | 263° |
| 2026-05-06 20:57 | 60.91627 | 29.84868 | 30031 ft | 420 kts | 263° |
| 2026-05-06 20:57 | 60.91229 | 29.72863 | 30029 ft | 420 kts | 263° |
| 2026-05-06 20:58 | 60.90822 | 29.60923 | 30028 ft | 421 kts | 262° |
| 2026-05-06 20:58 | 60.90695 | 29.57254 | 30030 ft | 421 kts | 262° |
| 2026-05-06 21:00 | 60.90279 | 29.45360 | 30037 ft | 421 kts | 262° |
| 2026-05-06 21:00 | 60.89841 | 29.33327 | 30031 ft | 422 kts | 262° |
| 2026-05-06 21:01 | 60.89391 | 29.21355 | 30027 ft | 421 kts | 262° |
| 2026-05-06 21:01 | 60.88931 | 29.09314 | 30033 ft | 422 kts | 262° |
| 2026-05-06 21:02 | 60.88458 | 28.97258 | 30033 ft | 423 kts | 262° |
| 2026-05-06 21:02 | 60.87978 | 28.85250 | 30037 ft | 424 kts | 262° |
| 2026-05-06 21:03 | 60.87487 | 28.73243 | 30024 ft | 424 kts | 262° |
| 2026-05-06 21:03 | 60.86982 | 28.61133 | 30019 ft | 424 kts | 262° |
| 2026-05-06 21:04 | 60.86470 | 28.49127 | 30017 ft | 424 kts | 262° |
| 2026-05-06 21:04 | 60.85945 | 28.37048 | 30013 ft | 425 kts | 262° |
| 2026-05-06 21:05 | 60.85163 | 28.25229 | 30023 ft | 418 kts | 257° |
| 2026-05-06 21:05 | 60.83996 | 28.13379 | 30017 ft | 426 kts | 256° |
| 2026-05-06 21:06 | 60.82795 | 28.01589 | 30014 ft | 423 kts | 256° |
| 2026-05-06 21:06 | 60.81627 | 27.89761 | 30018 ft | 422 kts | 256° |
| 2026-05-06 21:07 | 60.80480 | 27.77955 | 30019 ft | 422 kts | 256° |
| 2026-05-06 21:07 | 60.79334 | 27.66188 | 30027 ft | 423 kts | 256° |
| 2026-05-06 21:08 | 60.78177 | 27.54431 | 30024 ft | 423 kts | 256° |
| 2026-05-06 21:08 | 60.76996 | 27.42561 | 30023 ft | 424 kts | 256° |
| 2026-05-06 21:09 | 60.75806 | 27.30720 | 30014 ft | 425 kts | 256° |
| 2026-05-06 21:09 | 60.74608 | 27.18918 | 30004 ft | 425 kts | 256° |
| 2026-05-06 21:10 | 60.73396 | 27.07091 | 30007 ft | 425 kts | 256° |
| 2026-05-06 21:10 | 60.72170 | 26.95235 | 30004 ft | 426 kts | 256° |
| 2026-05-06 21:11 | 60.70939 | 26.83442 | 30010 ft | 426 kts | 256° |
| 2026-05-06 21:11 | 60.69689 | 26.71579 | 30012 ft | 426 kts | 256° |
| 2026-05-06 21:12 | 60.68439 | 26.59822 | 30019 ft | 426 kts | 255° |
| 2026-05-06 21:12 | 60.67170 | 26.47989 | 30024 ft | 426 kts | 255° |
| 2026-05-06 21:13 | 60.65898 | 26.36238 | 30027 ft | 426 kts | 255° |
| 2026-05-06 21:13 | 60.64607 | 26.24420 | 30031 ft | 427 kts | 255° |
| 2026-05-06 21:14 | 60.63312 | 26.12661 | 30031 ft | 427 kts | 255° |
| 2026-05-06 21:14 | 60.61999 | 26.00850 | 30034 ft | 427 kts | 255° |
| 2026-05-06 21:15 | 60.60674 | 25.89035 | 30023 ft | 427 kts | 255° |
| 2026-05-06 21:15 | 60.59341 | 25.77239 | 30027 ft | 427 kts | 255° |
| 2026-05-06 21:16 | 60.58000 | 25.65480 | 30020 ft | 425 kts | 255° |
| 2026-05-06 21:16 | 60.56657 | 25.53810 | 30026 ft | 425 kts | 255° |
| 2026-05-06 21:17 | 60.55316 | 25.42234 | 29910 ft | 408 kts | 255° |
| 2026-05-06 21:17 | 60.54678 | 25.36749 | 29707 ft | 395 kts | 255° |
| 2026-05-06 21:17 | 60.54052 | 25.31403 | 29512 ft | 382 kts | 254° |
| 2026-05-06 21:17 | 60.53443 | 25.26223 | 29313 ft | 370 kts | 254° |
| 2026-05-06 21:18 | 60.52852 | 25.21214 | 29117 ft | 359 kts | 254° |
| 2026-05-06 21:18 | 60.52270 | 25.16317 | 28940 ft | 355 kts | 254° |
| 2026-05-06 21:18 | 60.51691 | 25.11461 | 28771 ft | 353 kts | 254° |
| 2026-05-06 21:18 | 60.51118 | 25.06665 | 28604 ft | 352 kts | 254° |
| 2026-05-06 21:19 | 60.50540 | 25.01835 | 28437 ft | 351 kts | 254° |
| 2026-05-06 21:19 | 60.49961 | 24.97011 | 28272 ft | 350 kts | 254° |
| 2026-05-06 21:19 | 60.49385 | 24.92226 | 28107 ft | 349 kts | 254° |
| 2026-05-06 21:19 | 60.48813 | 24.87491 | 27948 ft | 348 kts | 254° |
| 2026-05-06 21:20 | 60.48234 | 24.82712 | 27784 ft | 348 kts | 254° |
| 2026-05-06 21:20 | 60.47653 | 24.77938 | 27620 ft | 347 kts | 254° |
| 2026-05-06 21:20 | 60.47073 | 24.73185 | 27471 ft | 347 kts | 254° |
| 2026-05-06 21:20 | 60.46499 | 24.68489 | 27309 ft | 347 kts | 254° |
| 2026-05-06 21:21 | 60.45917 | 24.63749 | 27158 ft | 346 kts | 253° |
| 2026-05-06 21:21 | 60.45331 | 24.58993 | 27002 ft | 346 kts | 253° |
| 2026-05-06 21:21 | 60.44746 | 24.54262 | 26849 ft | 346 kts | 253° |
| 2026-05-06 21:21 | 60.44161 | 24.49549 | 26695 ft | 345 kts | 253° |
| 2026-05-06 21:22 | 60.43581 | 24.44885 | 26549 ft | 345 kts | 253° |
| 2026-05-06 21:22 | 60.42993 | 24.40174 | 26399 ft | 344 kts | 253° |
| 2026-05-06 21:22 | 60.42404 | 24.35473 | 26243 ft | 344 kts | 253° |
| 2026-05-06 21:22 | 60.41815 | 24.30783 | 26095 ft | 343 kts | 253° |
| 2026-05-06 21:23 | 60.41226 | 24.26107 | 25943 ft | 342 kts | 253° |
| 2026-05-06 21:23 | 60.40637 | 24.21450 | 25791 ft | 341 kts | 253° |
| 2026-05-06 21:23 | 60.40048 | 24.16805 | 25643 ft | 339 kts | 253° |
| 2026-05-06 21:23 | 60.39469 | 24.12249 | 25489 ft | 338 kts | 253° |
| 2026-05-06 21:24 | 60.38883 | 24.07656 | 25345 ft | 336 kts | 253° |
| 2026-05-06 21:24 | 60.38300 | 24.03098 | 25190 ft | 334 kts | 253° |
| 2026-05-06 21:24 | 60.37716 | 23.98550 | 25050 ft | 334 kts | 253° |
| 2026-05-06 21:24 | 60.37129 | 23.93996 | 24899 ft | 333 kts | 253° |
| 2026-05-06 21:25 | 60.36550 | 23.89513 | 24766 ft | 332 kts | 253° |
| 2026-05-06 21:25 | 60.35965 | 23.84998 | 24615 ft | 331 kts | 253° |
| 2026-05-06 21:25 | 60.35381 | 23.80505 | 24464 ft | 329 kts | 253° |
| 2026-05-06 21:25 | 60.34800 | 23.76041 | 24323 ft | 328 kts | 253° |
| 2026-05-06 21:26 | 60.34220 | 23.71602 | 24176 ft | 326 kts | 253° |
| 2026-05-06 21:26 | 60.33639 | 23.67169 | 24035 ft | 327 kts | 252° |
| 2026-05-06 21:26 | 60.33050 | 23.62696 | 23902 ft | 330 kts | 252° |
| 2026-05-06 21:26 | 60.32460 | 23.58217 | 23764 ft | 331 kts | 252° |
| 2026-05-06 21:27 | 60.31872 | 23.53768 | 23625 ft | 331 kts | 252° |
| 2026-05-06 21:27 | 60.31277 | 23.49273 | 23453 ft | 331 kts | 252° |
| 2026-05-06 21:27 | 60.30683 | 23.44815 | 23299 ft | 331 kts | 252° |
| 2026-05-06 21:27 | 60.30084 | 23.40315 | 23128 ft | 331 kts | 252° |
| 2026-05-06 21:28 | 60.29485 | 23.35839 | 22964 ft | 331 kts | 252° |
| 2026-05-06 21:28 | 60.28885 | 23.31368 | 22798 ft | 330 kts | 252° |
| 2026-05-06 21:28 | 60.28289 | 23.26936 | 22633 ft | 329 kts | 252° |
| 2026-05-06 21:28 | 60.27690 | 23.22495 | 22466 ft | 328 kts | 252° |
| 2026-05-06 21:29 | 60.27090 | 23.18059 | 22297 ft | 328 kts | 252° |
| 2026-05-06 21:29 | 60.26485 | 23.13610 | 22144 ft | 328 kts | 252° |
| 2026-05-06 21:29 | 60.25890 | 23.09234 | 21978 ft | 327 kts | 252° |
| 2026-05-06 21:29 | 60.25288 | 23.04819 | 21813 ft | 326 kts | 253° |
| 2026-05-06 21:30 | 60.24684 | 23.00401 | 21656 ft | 326 kts | 253° |
| 2026-05-06 21:30 | 60.24082 | 22.96012 | 21501 ft | 325 kts | 253° |
| 2026-05-06 21:30 | 60.23485 | 22.91672 | 21344 ft | 325 kts | 253° |
| 2026-05-06 21:30 | 60.22876 | 22.87261 | 21173 ft | 325 kts | 253° |
| 2026-05-06 21:31 | 60.22272 | 22.82888 | 21030 ft | 324 kts | 253° |
| 2026-05-06 21:31 | 60.21663 | 22.78504 | 20868 ft | 325 kts | 253° |
| 2026-05-06 21:31 | 60.21059 | 22.74162 | 20723 ft | 326 kts | 253° |
| 2026-05-06 21:31 | 60.20447 | 22.69774 | 20564 ft | 325 kts | 253° |
| 2026-05-06 21:32 | 60.19835 | 22.65390 | 20415 ft | 325 kts | 253° |
| 2026-05-06 21:32 | 60.18601 | 22.56604 | 20101 ft | 327 kts | 253° |
| 2026-05-06 21:32 | 60.17979 | 22.52192 | 19960 ft | 326 kts | 253° |
| 2026-05-06 21:33 | 60.17367 | 22.47860 | 19812 ft | 326 kts | 253° |
| 2026-05-06 21:33 | 60.16746 | 22.43482 | 19656 ft | 325 kts | 253° |
| 2026-05-06 21:33 | 60.16120 | 22.39080 | 19515 ft | 326 kts | 253° |
| 2026-05-06 21:33 | 60.15503 | 22.34749 | 19370 ft | 327 kts | 253° |
| 2026-05-06 21:34 | 60.14877 | 22.30371 | 19216 ft | 325 kts | 253° |
| 2026-05-06 21:34 | 60.14251 | 22.25997 | 19068 ft | 328 kts | 253° |
| 2026-05-06 21:34 | 60.13620 | 22.21608 | 18929 ft | 324 kts | 253° |
| 2026-05-06 21:34 | 60.13003 | 22.17325 | 18782 ft | 323 kts | 253° |
| 2026-05-06 21:35 | 60.12379 | 22.13003 | 18638 ft | 322 kts | 253° |
| 2026-05-06 21:35 | 60.11754 | 22.08692 | 18494 ft | 320 kts | 253° |
| 2026-05-06 21:35 | 60.11130 | 22.04399 | 18350 ft | 319 kts | 253° |
| 2026-05-06 21:35 | 60.10506 | 22.00111 | 18185 ft | 319 kts | 253° |
| 2026-05-06 21:36 | 60.09892 | 21.95903 | 18005 ft | 318 kts | 253° |
| 2026-05-06 21:36 | 60.09269 | 21.91639 | 17853 ft | 318 kts | 253° |
| 2026-05-06 21:36 | 60.08647 | 21.87398 | 17687 ft | 318 kts | 253° |
| 2026-05-06 21:36 | 60.08021 | 21.83138 | 17523 ft | 317 kts | 253° |
| 2026-05-06 21:37 | 60.07394 | 21.78881 | 17362 ft | 317 kts | 253° |
| 2026-05-06 21:37 | 60.06775 | 21.74691 | 17204 ft | 317 kts | 253° |
| 2026-05-06 21:37 | 60.06145 | 21.70442 | 17041 ft | 317 kts | 253° |
| 2026-05-06 21:37 | 60.05514 | 21.66196 | 16876 ft | 317 kts | 253° |
| 2026-05-06 21:38 | 60.04882 | 21.61950 | 16723 ft | 317 kts | 253° |
| 2026-05-06 21:38 | 60.04259 | 21.57775 | 16552 ft | 315 kts | 253° |
| 2026-05-06 21:38 | 60.03630 | 21.53572 | 16403 ft | 315 kts | 253° |
| 2026-05-06 21:38 | 60.02999 | 21.49373 | 16245 ft | 315 kts | 253° |
| 2026-05-06 21:39 | 60.02367 | 21.45172 | 16088 ft | 314 kts | 253° |
| 2026-05-06 21:39 | 60.01739 | 21.41006 | 15930 ft | 313 kts | 253° |
| 2026-05-06 21:39 | 60.01118 | 21.36899 | 15769 ft | 312 kts | 253° |
| 2026-05-06 21:39 | 60.00488 | 21.32747 | 15623 ft | 312 kts | 253° |
| 2026-05-06 21:40 | 59.99859 | 21.28606 | 15464 ft | 310 kts | 253° |
| 2026-05-06 21:40 | 59.99229 | 21.24470 | 15311 ft | 310 kts | 253° |
| 2026-05-06 21:40 | 59.98601 | 21.20354 | 15157 ft | 310 kts | 253° |
| 2026-05-06 21:40 | 59.97973 | 21.16251 | 15007 ft | 309 kts | 253° |
| 2026-05-06 21:41 | 59.97352 | 21.12205 | 14851 ft | 307 kts | 253° |
| 2026-05-06 21:41 | 59.96724 | 21.08119 | 14698 ft | 307 kts | 253° |
| 2026-05-06 21:41 | 59.96095 | 21.04037 | 14546 ft | 308 kts | 253° |
| 2026-05-06 21:41 | 59.95461 | 20.99935 | 14404 ft | 311 kts | 253° |
| 2026-05-06 21:42 | 59.94822 | 20.95801 | 14264 ft | 312 kts | 253° |
| 2026-05-06 21:42 | 59.94178 | 20.91651 | 14117 ft | 312 kts | 253° |
| 2026-05-06 21:42 | 59.93536 | 20.87522 | 13969 ft | 312 kts | 252° |
| 2026-05-06 21:42 | 59.92891 | 20.83387 | 13817 ft | 311 kts | 252° |
| 2026-05-06 21:43 | 59.92251 | 20.79300 | 13647 ft | 311 kts | 252° |
| 2026-05-06 21:43 | 59.91605 | 20.75179 | 13491 ft | 311 kts | 252° |
| 2026-05-06 21:43 | 59.90959 | 20.71066 | 13324 ft | 310 kts | 252° |
| 2026-05-06 21:43 | 59.90531 | 20.68345 | 13223 ft | 310 kts | 252° |
| 2026-05-06 21:44 | 59.89671 | 20.62898 | 13005 ft | 310 kts | 252° |
| 2026-05-06 21:44 | 59.89240 | 20.60176 | 12898 ft | 309 kts | 252° |
| 2026-05-06 21:44 | 59.88592 | 20.56083 | 12749 ft | 309 kts | 252° |
| 2026-05-06 21:44 | 59.87733 | 20.50680 | 12515 ft | 309 kts | 252° |
| 2026-05-06 21:45 | 59.87301 | 20.47967 | 12414 ft | 308 kts | 252° |
| 2026-05-06 21:45 | 59.86651 | 20.43894 | 12241 ft | 308 kts | 252° |
| 2026-05-06 21:45 | 59.85999 | 20.39818 | 12102 ft | 308 kts | 252° |
| 2026-05-06 21:45 | 59.85136 | 20.34441 | 11887 ft | 308 kts | 252° |
| 2026-05-06 21:46 | 59.85006 | 20.33627 | 11846 ft | 307 kts | 252° |